WXM80 ListenWXM80 Stop

You find our weather info also at:

UK Metoffice

WeatherCloud

Weather Underground

Northeastern Weather Network

AWEKAS

Citizen Weather Observer Program (CWOP)

HAMweather, WeatherForYou, PWS Weather


Weather Underground History page Text

Daily Summary for January 9, 2018 Units:  Both    English   Metric
« Previous Day
Next Day »
Daily Weekly Monthly Yearly Custom
  High: Low: Average:
Temperature: 43.1 °F /  6.2 °C 31.6 °F /  -0.2 °C 35.5 °F /  1.9 °C
Dew Point: 30.5 °F /  -0.8 °C 25.9 °F /  -3.4 °C 28 °F /  -2.2 °C
Humidity: 83 % 55 % 75 %
Wind Speed: 10.4 mph /  16.7 km/h - 4.8 mph /  7.7 km/h
Wind Gust: 19.6 mph /  31.5 km/h - -
Wind:- - WSW
Pressure: 30.29 in /  1025.6 hPa 29.75 in /  1007.3 hPa -
Precipitation: 0.00 in /  0 mm    
Historical Graphs
 
 
Tabular Data for January 9, 2018
Time Temperature Dew Point Pressure Wind Wind Speed Wind Gust Humidity Rainfall Rate (Hourly)
00:00 32.0 °F /  0 °C 26.2 °F /  -3.2 °C 30.01 in /  1016.1 hPa South 6.8 mph /  10.9 km/h 11.5 mph /  18.5 km/h 79 % 0.00 in /  0 mm
00:01 32.0 °F /  0 °C 26.2 °F /  -3.2 °C 30.01 in /  1016.1 hPa SW 5.9 mph /  9.5 km/h 11.5 mph /  18.5 km/h 79 % 0.00 in /  0 mm
00:04 32.0 °F /  0 °C 26.2 °F /  -3.2 °C 29.77 in /  1008 hPa WSW 4.9 mph /  7.9 km/h 8.0 mph /  12.9 km/h 79 % 0.00 in /  0 mm
00:06 32.0 °F /  0 °C 26.2 °F /  -3.2 °C 30.01 in /  1016.1 hPa West 1.9 mph /  3.1 km/h 6.9 mph /  11.1 km/h 79 % 0.00 in /  0 mm
00:07 32.0 °F /  0 °C 26.2 °F /  -3.2 °C 30.01 in /  1016.1 hPa SW 2.2 mph /  3.5 km/h 7.0 mph /  11.3 km/h 79 % 0.00 in /  0 mm
00:08 32.0 °F /  0 °C 26.2 °F /  -3.2 °C 30.01 in /  1016.1 hPa SW 5.2 mph /  8.4 km/h 8.0 mph /  12.9 km/h 79 % 0.00 in /  0 mm
00:11 32.0 °F /  0 °C 25.9 °F /  -3.4 °C 30.01 in /  1016.1 hPa WSW 4.2 mph /  6.8 km/h 10.0 mph /  16.1 km/h 78 % 0.00 in /  0 mm
00:12 32.1 °F /  0.1 °C 26.0 °F /  -3.3 °C 30.01 in /  1016.1 hPa WSW 5.9 mph /  9.5 km/h 10.4 mph /  16.7 km/h 78 % 0.00 in /  0 mm
00:13 32.1 °F /  0.1 °C 26.0 °F /  -3.3 °C 29.76 in /  1007.7 hPa SW 3.2 mph /  5.1 km/h 5.8 mph /  9.3 km/h 78 % 0.00 in /  0 mm
00:15 32.1 °F /  0.1 °C 26.0 °F /  -3.3 °C 30.01 in /  1016.1 hPa WSW 2.6 mph /  4.2 km/h 6.0 mph /  9.7 km/h 78 % 0.00 in /  0 mm
00:16 32.1 °F /  0.1 °C 26.0 °F /  -3.3 °C 30.01 in /  1016.1 hPa SW 4.3 mph /  6.9 km/h 7.0 mph /  11.3 km/h 78 % 0.00 in /  0 mm
00:17 32.1 °F /  0.1 °C 26.0 °F /  -3.3 °C 30.01 in /  1016.1 hPa SSW 3.0 mph /  4.8 km/h 8.1 mph /  13 km/h 78 % 0.00 in /  0 mm
00:20 32.1 °F /  0.1 °C 26.0 °F /  -3.3 °C 30.01 in /  1016.1 hPa WSW 4.1 mph /  6.6 km/h 8.1 mph /  13 km/h 78 % 0.00 in /  0 mm
00:21 32.1 °F /  0.1 °C 26.0 °F /  -3.3 °C 30.01 in /  1016.1 hPa SW 4.6 mph /  7.4 km/h 11.5 mph /  18.5 km/h 78 % 0.00 in /  0 mm
00:22 32.1 °F /  0.1 °C 26.0 °F /  -3.3 °C 30.00 in /  1015.8 hPa WSW 3.5 mph /  5.6 km/h 8.0 mph /  12.9 km/h 78 % 0.00 in /  0 mm
00:23 32.1 °F /  0.1 °C 26.0 °F /  -3.3 °C 30.01 in /  1016.1 hPa West 4.5 mph /  7.2 km/h 8.1 mph /  13 km/h 78 % 0.00 in /  0 mm
00:24 32.1 °F /  0.1 °C 26.0 °F /  -3.3 °C 30.01 in /  1016.1 hPa WSW 4.2 mph /  6.8 km/h 8.1 mph /  13 km/h 78 % 0.00 in /  0 mm
00:27 32.1 °F /  0.1 °C 26.0 °F /  -3.3 °C 30.01 in /  1016.1 hPa WSW 2.6 mph /  4.2 km/h 10.4 mph /  16.7 km/h 78 % 0.00 in /  0 mm
00:28 32.1 °F /  0.1 °C 26.0 °F /  -3.3 °C 30.01 in /  1016.1 hPa WSW 2.9 mph /  4.7 km/h 4.6 mph /  7.4 km/h 78 % 0.00 in /  0 mm
00:29 32.1 °F /  0.1 °C 26.0 °F /  -3.3 °C 30.01 in /  1016.1 hPa West 5.3 mph /  8.5 km/h 9.2 mph /  14.8 km/h 78 % 0.00 in /  0 mm
00:30 32.2 °F /  0.1 °C 26.1 °F /  -3.3 °C 30.01 in /  1016.1 hPa WSW 3.9 mph /  6.3 km/h 9.2 mph /  14.8 km/h 78 % 0.00 in /  0 mm
00:31 32.2 °F /  0.1 °C 26.1 °F /  -3.3 °C 30.00 in /  1015.8 hPa WSW 4.5 mph /  7.2 km/h 9.2 mph /  14.8 km/h 78 % 0.00 in /  0 mm
00:32 32.2 °F /  0.1 °C 26.1 °F /  -3.3 °C 30.01 in /  1016.1 hPa SW 5.9 mph /  9.5 km/h 10.4 mph /  16.7 km/h 78 % 0.00 in /  0 mm
00:36 32.2 °F /  0.1 °C 26.1 °F /  -3.3 °C 30.01 in /  1016.1 hPa SSW 3.8 mph /  6.1 km/h 8.1 mph /  13 km/h 78 % 0.00 in /  0 mm
00:38 32.1 °F /  0.1 °C 26.0 °F /  -3.3 °C 29.76 in /  1007.7 hPa SW 4.7 mph /  7.6 km/h 6.9 mph /  11.1 km/h 78 % 0.00 in /  0 mm
00:39 32.2 °F /  0.1 °C 26.1 °F /  -3.3 °C 30.00 in /  1015.8 hPa WSW 3.2 mph /  5.1 km/h 9.2 mph /  14.8 km/h 78 % 0.00 in /  0 mm
00:40 32.1 °F /  0.1 °C 26.0 °F /  -3.3 °C 29.76 in /  1007.7 hPa West 3.1 mph /  5 km/h 4.6 mph /  7.4 km/h 78 % 0.00 in /  0 mm
00:42 32.2 °F /  0.1 °C 26.1 °F /  -3.3 °C 30.00 in /  1015.8 hPa WSW 3.7 mph /  6 km/h 5.8 mph /  9.3 km/h 78 % 0.00 in /  0 mm
00:43 32.2 °F /  0.1 °C 26.1 °F /  -3.3 °C 30.00 in /  1015.8 hPa WNW 1.1 mph /  1.8 km/h 5.8 mph /  9.3 km/h 78 % 0.00 in /  0 mm
00:45 32.2 °F /  0.1 °C 26.1 °F /  -3.3 °C 30.00 in /  1015.8 hPa SSW 1.6 mph /  2.6 km/h 6.9 mph /  11.1 km/h 78 % 0.00 in /  0 mm
00:46 32.1 °F /  0.1 °C 26.0 °F /  -3.3 °C 30.00 in /  1015.8 hPa SW 4.0 mph /  6.4 km/h 4.0 mph /  6.4 km/h 78 % 0.00 in /  0 mm
00:51 32.2 °F /  0.1 °C 26.1 °F /  -3.3 °C 30.00 in /  1015.8 hPa West 3.3 mph /  5.3 km/h 10.4 mph /  16.7 km/h 78 % 0.00 in /  0 mm
00:52 32.2 °F /  0.1 °C 26.1 °F /  -3.3 °C 30.00 in /  1015.8 hPa SSW 3.3 mph /  5.3 km/h 8.1 mph /  13 km/h 78 % 0.00 in /  0 mm
00:53 32.1 °F /  0.1 °C 26.0 °F /  -3.3 °C 30.01 in /  1016.1 hPa West 2.6 mph /  4.2 km/h 8.1 mph /  13 km/h 78 % 0.00 in /  0 mm
00:54 32.2 °F /  0.1 °C 26.1 °F /  -3.3 °C 30.00 in /  1015.8 hPa SW 4.5 mph /  7.2 km/h 10.4 mph /  16.7 km/h 78 % 0.00 in /  0 mm
00:55 32.1 °F /  0.1 °C 26.0 °F /  -3.3 °C 30.00 in /  1015.8 hPa SW 4.4 mph /  7.1 km/h 8.1 mph /  13 km/h 78 % 0.00 in /  0 mm
00:56 32.2 °F /  0.1 °C 26.1 °F /  -3.3 °C 30.00 in /  1015.8 hPa WSW 3.8 mph /  6.1 km/h 5.8 mph /  9.3 km/h 78 % 0.00 in /  0 mm
00:58 32.1 °F /  0.1 °C 26.0 °F /  -3.3 °C 30.00 in /  1015.8 hPa WSW 4.8 mph /  7.7 km/h 4.8 mph /  7.7 km/h 78 % 0.00 in /  0 mm
01:00 32.2 °F /  0.1 °C 26.1 °F /  -3.3 °C 30.00 in /  1015.8 hPa SW 2.8 mph /  4.5 km/h 8.1 mph /  13 km/h 78 % 0.00 in /  0 mm
01:01 32.1 °F /  0.1 °C 26.0 °F /  -3.3 °C 30.00 in /  1015.8 hPa SSW 4.0 mph /  6.4 km/h 6.0 mph /  9.7 km/h 78 % 0.00 in /  0 mm
01:05 32.2 °F /  0.1 °C 26.1 °F /  -3.3 °C 30.00 in /  1015.8 hPa SW 2.5 mph /  4 km/h 4.0 mph /  6.4 km/h 78 % 0.00 in /  0 mm
01:06 32.1 °F /  0.1 °C 26.0 °F /  -3.3 °C 30.00 in /  1015.8 hPa SSW 2.9 mph /  4.7 km/h 4.6 mph /  7.4 km/h 78 % 0.00 in /  0 mm
01:08 32.1 °F /  0.1 °C 26.0 °F /  -3.3 °C 30.00 in /  1015.8 hPa SSW 2.6 mph /  4.2 km/h 5.8 mph /  9.3 km/h 78 % 0.00 in /  0 mm
01:09 32.1 °F /  0.1 °C 26.0 °F /  -3.3 °C 30.00 in /  1015.8 hPa SW 3.6 mph /  5.8 km/h 6.0 mph /  9.7 km/h 78 % 0.00 in /  0 mm
01:10 32.1 °F /  0.1 °C 26.3 °F /  -3.2 °C 30.00 in /  1015.8 hPa WSW 3.5 mph /  5.6 km/h 6.9 mph /  11.1 km/h 79 % 0.00 in /  0 mm
01:12 32.1 °F /  0.1 °C 26.3 °F /  -3.2 °C 30.00 in /  1015.8 hPa SW 6.0 mph /  9.7 km/h 8.0 mph /  12.9 km/h 79 % 0.00 in /  0 mm
01:13 32.1 °F /  0.1 °C 26.3 °F /  -3.2 °C 29.75 in /  1007.3 hPa WSW 4.5 mph /  7.2 km/h 9.2 mph /  14.8 km/h 79 % 0.00 in /  0 mm
01:15 32.1 °F /  0.1 °C 26.3 °F /  -3.2 °C 30.00 in /  1015.8 hPa WSW 3.4 mph /  5.5 km/h 6.9 mph /  11.1 km/h 79 % 0.00 in /  0 mm
01:16 32.1 °F /  0.1 °C 26.3 °F /  -3.2 °C 30.00 in /  1015.8 hPa South 4.2 mph /  6.8 km/h 5.8 mph /  9.3 km/h 79 % 0.00 in /  0 mm
01:18 32.1 °F /  0.1 °C 26.3 °F /  -3.2 °C 29.76 in /  1007.7 hPa WSW 5.3 mph /  8.5 km/h 8.1 mph /  13 km/h 79 % 0.00 in /  0 mm
01:21 32.1 °F /  0.1 °C 26.3 °F /  -3.2 °C 30.01 in /  1016.1 hPa SW 5.0 mph /  8 km/h 9.0 mph /  14.5 km/h 79 % 0.00 in /  0 mm
01:25 32.1 °F /  0.1 °C 26.3 °F /  -3.2 °C 30.00 in /  1015.8 hPa SW 2.3 mph /  3.7 km/h 4.6 mph /  7.4 km/h 79 % 0.00 in /  0 mm
01:26 32.1 °F /  0.1 °C 26.3 °F /  -3.2 °C 29.76 in /  1007.7 hPa SW 1.0 mph /  1.6 km/h 8.0 mph /  12.9 km/h 79 % 0.00 in /  0 mm
01:28 32.1 °F /  0.1 °C 26.3 °F /  -3.2 °C 30.01 in /  1016.1 hPa WSW 3.0 mph /  4.8 km/h 6.0 mph /  9.7 km/h 79 % 0.00 in /  0 mm
01:29 32.1 °F /  0.1 °C 26.3 °F /  -3.2 °C 30.01 in /  1016.1 hPa SSW 4.0 mph /  6.4 km/h 6.0 mph /  9.7 km/h 79 % 0.00 in /  0 mm
01:31 32.1 °F /  0.1 °C 26.3 °F /  -3.2 °C 30.01 in /  1016.1 hPa SSW 3.6 mph /  5.8 km/h 6.9 mph /  11.1 km/h 79 % 0.00 in /  0 mm
01:32 32.0 °F /  0 °C 26.2 °F /  -3.2 °C 30.01 in /  1016.1 hPa SW 3.5 mph /  5.6 km/h 6.9 mph /  11.1 km/h 79 % 0.00 in /  0 mm
01:34 32.0 °F /  0 °C 26.2 °F /  -3.2 °C 29.77 in /  1008 hPa WSW 2.5 mph /  4 km/h 8.1 mph /  13 km/h 79 % 0.00 in /  0 mm
01:35 32.0 °F /  0 °C 26.2 °F /  -3.2 °C 30.01 in /  1016.1 hPa SW 4.8 mph /  7.7 km/h 9.0 mph /  14.5 km/h 79 % 0.00 in /  0 mm
01:36 32.0 °F /  0 °C 26.2 °F /  -3.2 °C 30.01 in /  1016.1 hPa SSW 3.9 mph /  6.3 km/h 9.2 mph /  14.8 km/h 79 % 0.00 in /  0 mm
01:40 32.0 °F /  0 °C 26.2 °F /  -3.2 °C 30.01 in /  1016.1 hPa WSW 5.0 mph /  8 km/h 9.2 mph /  14.8 km/h 79 % 0.00 in /  0 mm
01:41 31.9 °F /  -0.1 °C 26.1 °F /  -3.3 °C 30.02 in /  1016.5 hPa WSW 4.4 mph /  7.1 km/h 9.2 mph /  14.8 km/h 79 % 0.00 in /  0 mm
01:42 31.9 °F /  -0.1 °C 26.1 °F /  -3.3 °C 30.01 in /  1016.1 hPa SW 4.2 mph /  6.8 km/h 6.9 mph /  11.1 km/h 79 % 0.00 in /  0 mm
01:44 31.9 °F /  -0.1 °C 26.1 °F /  -3.3 °C 30.01 in /  1016.1 hPa WSW 3.2 mph /  5.1 km/h 6.9 mph /  11.1 km/h 79 % 0.00 in /  0 mm
01:45 31.9 °F /  -0.1 °C 26.1 °F /  -3.3 °C 29.77 in /  1008 hPa WSW 2.7 mph /  4.3 km/h 6.9 mph /  11.1 km/h 79 % 0.00 in /  0 mm
01:49 31.8 °F /  -0.1 °C 26.0 °F /  -3.3 °C 30.01 in /  1016.1 hPa SW 4.9 mph /  7.9 km/h 8.1 mph /  13 km/h 79 % 0.00 in /  0 mm
01:50 31.8 °F /  -0.1 °C 26.0 °F /  -3.3 °C 30.01 in /  1016.1 hPa SSW 4.6 mph /  7.4 km/h 5.8 mph /  9.3 km/h 79 % 0.00 in /  0 mm
01:52 31.7 °F /  -0.2 °C 25.9 °F /  -3.4 °C 30.02 in /  1016.5 hPa WSW 4.6 mph /  7.4 km/h 9.2 mph /  14.8 km/h 79 % 0.00 in /  0 mm
01:53 31.7 °F /  -0.2 °C 25.9 °F /  -3.4 °C 30.02 in /  1016.5 hPa SW 5.9 mph /  9.5 km/h 9.2 mph /  14.8 km/h 79 % 0.00 in /  0 mm
01:54 31.7 °F /  -0.2 °C 25.9 °F /  -3.4 °C 30.02 in /  1016.5 hPa SW 5.6 mph /  9 km/h 9.2 mph /  14.8 km/h 79 % 0.00 in /  0 mm
01:55 31.7 °F /  -0.2 °C 25.9 °F /  -3.4 °C 30.02 in /  1016.5 hPa WSW 7.0 mph /  11.3 km/h 9.2 mph /  14.8 km/h 79 % 0.00 in /  0 mm
01:58 31.7 °F /  -0.2 °C 25.9 °F /  -3.4 °C 30.02 in /  1016.5 hPa SW 5.4 mph /  8.7 km/h 10.4 mph /  16.7 km/h 79 % 0.00 in /  0 mm
01:59 31.7 °F /  -0.2 °C 26.2 °F /  -3.2 °C 30.02 in /  1016.5 hPa SW 4.7 mph /  7.6 km/h 8.1 mph /  13 km/h 80 % 0.00 in /  0 mm
02:00 31.7 °F /  -0.2 °C 26.2 °F /  -3.2 °C 30.03 in /  1016.8 hPa SW 5.2 mph /  8.4 km/h 9.2 mph /  14.8 km/h 80 % 0.00 in /  0 mm
02:01 31.7 °F /  -0.2 °C 26.2 °F /  -3.2 °C 30.03 in /  1016.8 hPa SW 5.7 mph /  9.2 km/h 9.2 mph /  14.8 km/h 80 % 0.00 in /  0 mm
02:02 31.7 °F /  -0.2 °C 26.2 °F /  -3.2 °C 30.02 in /  1016.5 hPa SSW 4.9 mph /  7.9 km/h 9.2 mph /  14.8 km/h 80 % 0.00 in /  0 mm
02:03 31.7 °F /  -0.2 °C 26.2 °F /  -3.2 °C 30.02 in /  1016.5 hPa South 5.3 mph /  8.5 km/h 8.1 mph /  13 km/h 80 % 0.00 in /  0 mm
02:04 31.7 °F /  -0.2 °C 26.2 °F /  -3.2 °C 29.78 in /  1008.4 hPa South 3.2 mph /  5.1 km/h 8.1 mph /  13 km/h 80 % 0.00 in /  0 mm
02:05 31.7 °F /  -0.2 °C 26.2 °F /  -3.2 °C 30.02 in /  1016.5 hPa WSW 4.1 mph /  6.6 km/h 4.6 mph /  7.4 km/h 80 % 0.00 in /  0 mm
02:06 31.7 °F /  -0.2 °C 26.2 °F /  -3.2 °C 30.02 in /  1016.5 hPa SW 6.5 mph /  10.5 km/h 9.2 mph /  14.8 km/h 80 % 0.00 in /  0 mm
02:09 31.8 °F /  -0.1 °C 26.3 °F /  -3.2 °C 30.02 in /  1016.5 hPa SW 5.7 mph /  9.2 km/h 10.4 mph /  16.7 km/h 80 % 0.00 in /  0 mm
02:10 31.8 °F /  -0.1 °C 26.6 °F /  -3 °C 30.02 in /  1016.5 hPa WSW 6.5 mph /  10.5 km/h 10.4 mph /  16.7 km/h 81 % 0.00 in /  0 mm
02:11 31.8 °F /  -0.1 °C 26.6 °F /  -3 °C 30.03 in /  1016.8 hPa SW 3.8 mph /  6.1 km/h 13.8 mph /  22.2 km/h 81 % 0.00 in /  0 mm
02:12 31.8 °F /  -0.1 °C 26.6 °F /  -3 °C 30.02 in /  1016.5 hPa SW 4.2 mph /  6.8 km/h 4.6 mph /  7.4 km/h 81 % 0.00 in /  0 mm
02:14 31.9 °F /  -0.1 °C 26.7 °F /  -2.9 °C 30.02 in /  1016.5 hPa SW 5.1 mph /  8.2 km/h 9.2 mph /  14.8 km/h 81 % 0.00 in /  0 mm
02:16 31.9 °F /  -0.1 °C 26.7 °F /  -2.9 °C 30.02 in /  1016.5 hPa WSW 4.9 mph /  7.9 km/h 9.2 mph /  14.8 km/h 81 % 0.00 in /  0 mm
02:20 31.9 °F /  -0.1 °C 26.7 °F /  -2.9 °C 30.02 in /  1016.5 hPa SW 3.7 mph /  6 km/h 8.0 mph /  12.9 km/h 81 % 0.00 in /  0 mm
02:21 32.0 °F /  0 °C 26.8 °F /  -2.9 °C 30.02 in /  1016.5 hPa SSW 5.8 mph /  9.3 km/h 8.1 mph /  13 km/h 81 % 0.00 in /  0 mm
02:22 31.9 °F /  -0.1 °C 26.7 °F /  -2.9 °C 30.02 in /  1016.5 hPa SSW 5.7 mph /  9.2 km/h 8.1 mph /  13 km/h 81 % 0.00 in /  0 mm
02:23 32.0 °F /  0 °C 26.8 °F /  -2.9 °C 30.02 in /  1016.5 hPa WSW 4.1 mph /  6.6 km/h 9.2 mph /  14.8 km/h 81 % 0.00 in /  0 mm
02:25 32.0 °F /  0 °C 26.8 °F /  -2.9 °C 30.02 in /  1016.5 hPa WSW 4.5 mph /  7.2 km/h 8.1 mph /  13 km/h 81 % 0.00 in /  0 mm
02:28 31.9 °F /  -0.1 °C 26.4 °F /  -3.1 °C 30.03 in /  1016.8 hPa SW 3.5 mph /  5.6 km/h 8.0 mph /  12.9 km/h 80 % 0.00 in /  0 mm
02:29 32.0 °F /  0 °C 26.5 °F /  -3.1 °C 29.77 in /  1008 hPa SW 4.2 mph /  6.8 km/h 9.0 mph /  14.5 km/h 80 % 0.00 in /  0 mm
02:32 32.0 °F /  0 °C 26.5 °F /  -3.1 °C 30.02 in /  1016.5 hPa SW 4.4 mph /  7.1 km/h 6.0 mph /  9.7 km/h 80 % 0.00 in /  0 mm
02:33 31.9 °F /  -0.1 °C 26.4 °F /  -3.1 °C 30.02 in /  1016.5 hPa WSW 1.7 mph /  2.7 km/h 6.9 mph /  11.1 km/h 80 % 0.00 in /  0 mm
02:34 31.9 °F /  -0.1 °C 26.4 °F /  -3.1 °C 30.02 in /  1016.5 hPa SSW 2.5 mph /  4 km/h 3.5 mph /  5.6 km/h 80 % 0.00 in /  0 mm
02:35 31.9 °F /  -0.1 °C 26.4 °F /  -3.1 °C 29.78 in /  1008.4 hPa WSW 2.2 mph /  3.5 km/h 5.0 mph /  8 km/h 80 % 0.00 in /  0 mm
02:36 31.9 °F /  -0.1 °C 26.4 °F /  -3.1 °C 30.02 in /  1016.5 hPa WSW 4.1 mph /  6.6 km/h 7.0 mph /  11.3 km/h 80 % 0.00 in /  0 mm
02:37 31.9 °F /  -0.1 °C 26.4 °F /  -3.1 °C 30.02 in /  1016.5 hPa SSW 5.3 mph /  8.5 km/h 6.9 mph /  11.1 km/h 80 % 0.00 in /  0 mm
02:38 31.9 °F /  -0.1 °C 26.4 °F /  -3.1 °C 30.03 in /  1016.8 hPa SSW 4.4 mph /  7.1 km/h 7.0 mph /  11.3 km/h 80 % 0.00 in /  0 mm
02:39 31.9 °F /  -0.1 °C 26.4 °F /  -3.1 °C 29.78 in /  1008.4 hPa SSW 5.3 mph /  8.5 km/h 6.9 mph /  11.1 km/h 80 % 0.00 in /  0 mm
02:40 31.9 °F /  -0.1 °C 26.4 °F /  -3.1 °C 30.03 in /  1016.8 hPa SSW 3.7 mph /  6 km/h 6.9 mph /  11.1 km/h 80 % 0.00 in /  0 mm
02:41 31.9 °F /  -0.1 °C 26.4 °F /  -3.1 °C 30.03 in /  1016.8 hPa SW 3.8 mph /  6.1 km/h 6.0 mph /  9.7 km/h 80 % 0.00 in /  0 mm
02:42 31.9 °F /  -0.1 °C 26.4 °F /  -3.1 °C 30.03 in /  1016.8 hPa SW 3.5 mph /  5.6 km/h 7.0 mph /  11.3 km/h 80 % 0.00 in /  0 mm
02:44 31.8 °F /  -0.1 °C 26.6 °F /  -3 °C 30.03 in /  1016.8 hPa SW 3.1 mph /  5 km/h 8.1 mph /  13 km/h 81 % 0.00 in /  0 mm
02:46 31.8 °F /  -0.1 °C 26.6 °F /  -3 °C 30.03 in /  1016.8 hPa SW 3.0 mph /  4.8 km/h 8.0 mph /  12.9 km/h 81 % 0.00 in /  0 mm
02:50 31.7 °F /  -0.2 °C 26.5 °F /  -3.1 °C 30.03 in /  1016.8 hPa SSW 4.7 mph /  7.6 km/h 7.0 mph /  11.3 km/h 81 % 0.00 in /  0 mm
02:51 31.7 °F /  -0.2 °C 26.5 °F /  -3.1 °C 30.02 in /  1016.5 hPa WSW 5.2 mph /  8.4 km/h 8.0 mph /  12.9 km/h 81 % 0.00 in /  0 mm
02:52 31.7 °F /  -0.2 °C 26.5 °F /  -3.1 °C 30.02 in /  1016.5 hPa WSW 4.5 mph /  7.2 km/h 8.1 mph /  13 km/h 81 % 0.00 in /  0 mm
02:53 31.7 °F /  -0.2 °C 26.5 °F /  -3.1 °C 30.02 in /  1016.5 hPa SSW 5.4 mph /  8.7 km/h 8.0 mph /  12.9 km/h 81 % 0.00 in /  0 mm
02:54 31.7 °F /  -0.2 °C 26.5 °F /  -3.1 °C 30.02 in /  1016.5 hPa SW 5.3 mph /  8.5 km/h 8.1 mph /  13 km/h 81 % 0.00 in /  0 mm
02:55 31.7 °F /  -0.2 °C 26.5 °F /  -3.1 °C 30.02 in /  1016.5 hPa SW 4.6 mph /  7.4 km/h 6.9 mph /  11.1 km/h 81 % 0.00 in /  0 mm
02:56 31.7 °F /  -0.2 °C 26.5 °F /  -3.1 °C 30.02 in /  1016.5 hPa SSW 4.3 mph /  6.9 km/h 6.9 mph /  11.1 km/h 81 % 0.00 in /  0 mm
02:57 31.7 °F /  -0.2 °C 26.5 °F /  -3.1 °C 30.02 in /  1016.5 hPa SW 4.8 mph /  7.7 km/h 8.1 mph /  13 km/h 81 % 0.00 in /  0 mm
02:58 31.7 °F /  -0.2 °C 26.5 °F /  -3.1 °C 30.02 in /  1016.5 hPa SW 6.3 mph /  10.1 km/h 9.0 mph /  14.5 km/h 81 % 0.00 in /  0 mm
02:59 31.6 °F /  -0.2 °C 26.4 °F /  -3.1 °C 30.02 in /  1016.5 hPa SW 6.8 mph /  10.9 km/h 6.9 mph /  11.1 km/h 81 % 0.00 in /  0 mm
03:01 31.6 °F /  -0.2 °C 26.4 °F /  -3.1 °C 30.02 in /  1016.5 hPa SSW 6.8 mph /  10.9 km/h 9.2 mph /  14.8 km/h 81 % 0.00 in /  0 mm
03:02 31.6 °F /  -0.2 °C 26.4 °F /  -3.1 °C 30.01 in /  1016.1 hPa WSW 6.1 mph /  9.8 km/h 8.1 mph /  13 km/h 81 % 0.00 in /  0 mm
03:03 31.6 °F /  -0.2 °C 26.4 °F /  -3.1 °C 30.01 in /  1016.1 hPa SSW 5.7 mph /  9.2 km/h 10.4 mph /  16.7 km/h 81 % 0.00 in /  0 mm
03:04 31.6 °F /  -0.2 °C 26.4 °F /  -3.1 °C 30.01 in /  1016.1 hPa SSW 5.1 mph /  8.2 km/h 8.0 mph /  12.9 km/h 81 % 0.00 in /  0 mm
03:05 31.6 °F /  -0.2 °C 26.4 °F /  -3.1 °C 30.01 in /  1016.1 hPa SSW 5.6 mph /  9 km/h 8.1 mph /  13 km/h 81 % 0.00 in /  0 mm
03:08 31.6 °F /  -0.2 °C 26.4 °F /  -3.1 °C 30.01 in /  1016.1 hPa SSW 5.2 mph /  8.4 km/h 7.0 mph /  11.3 km/h 81 % 0.00 in /  0 mm
03:09 31.6 °F /  -0.2 °C 26.4 °F /  -3.1 °C 30.01 in /  1016.1 hPa SW 3.6 mph /  5.8 km/h 7.0 mph /  11.3 km/h 81 % 0.00 in /  0 mm
03:12 31.6 °F /  -0.2 °C 26.4 °F /  -3.1 °C 30.01 in /  1016.1 hPa SSW 3.9 mph /  6.3 km/h 6.9 mph /  11.1 km/h 81 % 0.00 in /  0 mm
03:13 31.6 °F /  -0.2 °C 26.4 °F /  -3.1 °C 30.01 in /  1016.1 hPa SW 4.4 mph /  7.1 km/h 7.0 mph /  11.3 km/h 81 % 0.00 in /  0 mm
03:14 31.6 °F /  -0.2 °C 26.4 °F /  -3.1 °C 30.00 in /  1015.8 hPa SW 6.1 mph /  9.8 km/h 6.9 mph /  11.1 km/h 81 % 0.00 in /  0 mm
03:15 31.6 °F /  -0.2 °C 26.4 °F /  -3.1 °C 30.00 in /  1015.8 hPa SSW 6.0 mph /  9.7 km/h 9.2 mph /  14.8 km/h 81 % 0.00 in /  0 mm
03:16 31.6 °F /  -0.2 °C 26.4 °F /  -3.1 °C 30.00 in /  1015.8 hPa SSW 4.4 mph /  7.1 km/h 6.0 mph /  9.7 km/h 81 % 0.00 in /  0 mm
03:17 31.6 °F /  -0.2 °C 26.4 °F /  -3.1 °C 30.00 in /  1015.8 hPa SW 3.3 mph /  5.3 km/h 6.9 mph /  11.1 km/h 81 % 0.00 in /  0 mm
03:18 31.6 °F /  -0.2 °C 26.4 °F /  -3.1 °C 29.76 in /  1007.7 hPa SSW 3.5 mph /  5.6 km/h 6.9 mph /  11.1 km/h 81 % 0.00 in /  0 mm
03:20 31.6 °F /  -0.2 °C 26.4 °F /  -3.1 °C 30.00 in /  1015.8 hPa SW 6.0 mph /  9.7 km/h 9.2 mph /  14.8 km/h 81 % 0.00 in /  0 mm
03:21 31.6 °F /  -0.2 °C 26.4 °F /  -3.1 °C 30.00 in /  1015.8 hPa SSW 6.0 mph /  9.7 km/h 9.0 mph /  14.5 km/h 81 % 0.00 in /  0 mm
03:22 31.6 °F /  -0.2 °C 26.4 °F /  -3.1 °C 30.01 in /  1016.1 hPa WSW 4.4 mph /  7.1 km/h 8.1 mph /  13 km/h 81 % 0.00 in /  0 mm
03:23 31.6 °F /  -0.2 °C 26.4 °F /  -3.1 °C 30.00 in /  1015.8 hPa SSW 4.0 mph /  6.4 km/h 6.9 mph /  11.1 km/h 81 % 0.00 in /  0 mm
03:24 31.6 °F /  -0.2 °C 26.4 °F /  -3.1 °C 30.00 in /  1015.8 hPa SW 5.2 mph /  8.4 km/h 6.9 mph /  11.1 km/h 81 % 0.00 in /  0 mm
03:25 31.6 °F /  -0.2 °C 26.4 °F /  -3.1 °C 29.76 in /  1007.7 hPa WSW 6.2 mph /  10 km/h 12.7 mph /  20.4 km/h 81 % 0.00 in /  0 mm
03:26 31.6 °F /  -0.2 °C 26.4 °F /  -3.1 °C 30.00 in /  1015.8 hPa SSW 6.0 mph /  9.7 km/h 13.0 mph /  20.9 km/h 81 % 0.00 in /  0 mm
03:27 31.6 °F /  -0.2 °C 26.4 °F /  -3.1 °C 30.00 in /  1015.8 hPa SSW 6.0 mph /  9.7 km/h 12.7 mph /  20.4 km/h 81 % 0.00 in /  0 mm
03:30 31.7 °F /  -0.2 °C 26.5 °F /  -3.1 °C 30.01 in /  1016.1 hPa SSW 4.9 mph /  7.9 km/h 7.0 mph /  11.3 km/h 81 % 0.00 in /  0 mm
03:33 31.7 °F /  -0.2 °C 26.5 °F /  -3.1 °C 30.01 in /  1016.1 hPa SSW 5.2 mph /  8.4 km/h 6.9 mph /  11.1 km/h 81 % 0.00 in /  0 mm
03:37 31.7 °F /  -0.2 °C 26.5 °F /  -3.1 °C 30.01 in /  1016.1 hPa SSW 3.0 mph /  4.8 km/h 4.0 mph /  6.4 km/h 81 % 0.00 in /  0 mm
03:38 31.7 °F /  -0.2 °C 26.5 °F /  -3.1 °C 30.01 in /  1016.1 hPa SSW 3.4 mph /  5.5 km/h 7.0 mph /  11.3 km/h 81 % 0.00 in /  0 mm
03:39 31.7 °F /  -0.2 °C 26.5 °F /  -3.1 °C 30.01 in /  1016.1 hPa SSW 4.8 mph /  7.7 km/h 9.2 mph /  14.8 km/h 81 % 0.00 in /  0 mm
03:40 31.7 °F /  -0.2 °C 26.5 °F /  -3.1 °C 30.01 in /  1016.1 hPa SSW 3.4 mph /  5.5 km/h 9.2 mph /  14.8 km/h 81 % 0.00 in /  0 mm
03:41 31.7 °F /  -0.2 °C 26.5 °F /  -3.1 °C 30.01 in /  1016.1 hPa SSW 3.0 mph /  4.8 km/h 9.0 mph /  14.5 km/h 81 % 0.00 in /  0 mm
03:42 31.7 °F /  -0.2 °C 26.5 °F /  -3.1 °C 30.01 in /  1016.1 hPa WSW 4.6 mph /  7.4 km/h 7.0 mph /  11.3 km/h 81 % 0.00 in /  0 mm
03:43 31.7 °F /  -0.2 °C 26.5 °F /  -3.1 °C 29.77 in /  1008 hPa SW 4.6 mph /  7.4 km/h 6.9 mph /  11.1 km/h 81 % 0.00 in /  0 mm
03:44 31.7 °F /  -0.2 °C 26.5 °F /  -3.1 °C 30.01 in /  1016.1 hPa SSW 4.8 mph /  7.7 km/h 6.9 mph /  11.1 km/h 81 % 0.00 in /  0 mm
03:45 31.7 °F /  -0.2 °C 26.5 °F /  -3.1 °C 30.01 in /  1016.1 hPa SW 5.9 mph /  9.5 km/h 8.1 mph /  13 km/h 81 % 0.00 in /  0 mm
03:46 31.7 °F /  -0.2 °C 26.5 °F /  -3.1 °C 30.01 in /  1016.1 hPa SW 3.3 mph /  5.3 km/h 10.4 mph /  16.7 km/h 81 % 0.00 in /  0 mm
03:48 31.7 °F /  -0.2 °C 26.5 °F /  -3.1 °C 30.01 in /  1016.1 hPa SW 3.3 mph /  5.3 km/h 7.0 mph /  11.3 km/h 81 % 0.00 in /  0 mm
03:49 31.7 °F /  -0.2 °C 26.5 °F /  -3.1 °C 30.01 in /  1016.1 hPa SSW 3.7 mph /  6 km/h 6.9 mph /  11.1 km/h 81 % 0.00 in /  0 mm
03:50 31.7 °F /  -0.2 °C 26.5 °F /  -3.1 °C 30.01 in /  1016.1 hPa WSW 5.4 mph /  8.7 km/h 8.0 mph /  12.9 km/h 81 % 0.00 in /  0 mm
03:51 31.7 °F /  -0.2 °C 26.5 °F /  -3.1 °C 30.01 in /  1016.1 hPa SSW 4.7 mph /  7.6 km/h 8.1 mph /  13 km/h 81 % 0.00 in /  0 mm
03:52 31.7 °F /  -0.2 °C 26.5 °F /  -3.1 °C 30.01 in /  1016.1 hPa SSW 4.0 mph /  6.4 km/h 6.9 mph /  11.1 km/h 81 % 0.00 in /  0 mm
03:53 31.7 °F /  -0.2 °C 26.5 °F /  -3.1 °C 30.01 in /  1016.1 hPa SSW 3.8 mph /  6.1 km/h 8.1 mph /  13 km/h 81 % 0.00 in /  0 mm
03:54 31.7 °F /  -0.2 °C 26.5 °F /  -3.1 °C 30.01 in /  1016.1 hPa SW 4.1 mph /  6.6 km/h 8.1 mph /  13 km/h 81 % 0.00 in /  0 mm
03:55 31.7 °F /  -0.2 °C 26.5 °F /  -3.1 °C 30.01 in /  1016.1 hPa SW 4.9 mph /  7.9 km/h 8.1 mph /  13 km/h 81 % 0.00 in /  0 mm
03:56 31.7 °F /  -0.2 °C 26.5 °F /  -3.1 °C 30.01 in /  1016.1 hPa South 3.1 mph /  5 km/h 5.8 mph /  9.3 km/h 81 % 0.00 in /  0 mm
03:57 31.7 °F /  -0.2 °C 26.5 °F /  -3.1 °C 30.02 in /  1016.5 hPa WSW 3.8 mph /  6.1 km/h 7.0 mph /  11.3 km/h 81 % 0.00 in /  0 mm
03:58 31.7 °F /  -0.2 °C 26.5 °F /  -3.1 °C 30.01 in /  1016.1 hPa SSW 5.4 mph /  8.7 km/h 11.5 mph /  18.5 km/h 81 % 0.00 in /  0 mm
04:00 31.7 °F /  -0.2 °C 26.5 °F /  -3.1 °C 30.02 in /  1016.5 hPa SSW 3.3 mph /  5.3 km/h 5.0 mph /  8 km/h 81 % 0.00 in /  0 mm
04:02 31.7 °F /  -0.2 °C 26.5 °F /  -3.1 °C 30.02 in /  1016.5 hPa SSW 3.3 mph /  5.3 km/h 9.0 mph /  14.5 km/h 81 % 0.00 in /  0 mm
04:03 31.7 °F /  -0.2 °C 26.5 °F /  -3.1 °C 30.02 in /  1016.5 hPa SSW 4.9 mph /  7.9 km/h 7.0 mph /  11.3 km/h 81 % 0.00 in /  0 mm
04:04 31.8 °F /  -0.1 °C 26.6 °F /  -3 °C 30.02 in /  1016.5 hPa SW 5.3 mph /  8.5 km/h 8.0 mph /  12.9 km/h 81 % 0.00 in /  0 mm
04:05 31.7 °F /  -0.2 °C 26.5 °F /  -3.1 °C 30.02 in /  1016.5 hPa SW 3.7 mph /  6 km/h 5.8 mph /  9.3 km/h 81 % 0.00 in /  0 mm
04:06 31.8 °F /  -0.1 °C 26.9 °F /  -2.8 °C 30.02 in /  1016.5 hPa SSW 3.6 mph /  5.8 km/h 4.6 mph /  7.4 km/h 82 % 0.00 in /  0 mm
04:07 31.8 °F /  -0.1 °C 26.9 °F /  -2.8 °C 30.02 in /  1016.5 hPa SSW 4.0 mph /  6.4 km/h 6.0 mph /  9.7 km/h 82 % 0.00 in /  0 mm
04:08 31.8 °F /  -0.1 °C 26.9 °F /  -2.8 °C 30.02 in /  1016.5 hPa WSW 5.5 mph /  8.9 km/h 9.2 mph /  14.8 km/h 82 % 0.00 in /  0 mm
04:09 31.9 °F /  -0.1 °C 27.0 °F /  -2.8 °C 29.77 in /  1008 hPa SSW 4.3 mph /  6.9 km/h 8.1 mph /  13 km/h 82 % 0.00 in /  0 mm
04:10 31.9 °F /  -0.1 °C 27.0 °F /  -2.8 °C 30.02 in /  1016.5 hPa SW 4.2 mph /  6.8 km/h 8.1 mph /  13 km/h 82 % 0.00 in /  0 mm
04:13 31.9 °F /  -0.1 °C 27.0 °F /  -2.8 °C 29.78 in /  1008.4 hPa SW 6.2 mph /  10 km/h 9.0 mph /  14.5 km/h 82 % 0.00 in /  0 mm
04:14 32.0 °F /  0 °C 27.1 °F /  -2.7 °C 29.78 in /  1008.4 hPa SSW 4.8 mph /  7.7 km/h 9.2 mph /  14.8 km/h 82 % 0.00 in /  0 mm
04:15 32.0 °F /  0 °C 27.1 °F /  -2.7 °C 30.02 in /  1016.5 hPa SW 5.0 mph /  8 km/h 9.2 mph /  14.8 km/h 82 % 0.00 in /  0 mm
04:16 32.0 °F /  0 °C 27.1 °F /  -2.7 °C 30.02 in /  1016.5 hPa SSW 3.9 mph /  6.3 km/h 7.0 mph /  11.3 km/h 82 % 0.00 in /  0 mm
04:20 32.2 °F /  0.1 °C 27.3 °F /  -2.6 °C 30.02 in /  1016.5 hPa SSW 5.6 mph /  9 km/h 11.5 mph /  18.5 km/h 82 % 0.00 in /  0 mm
04:21 32.2 °F /  0.1 °C 27.3 °F /  -2.6 °C 30.02 in /  1016.5 hPa SW 5.0 mph /  8 km/h 12.0 mph /  19.3 km/h 82 % 0.00 in /  0 mm
04:22 32.2 °F /  0.1 °C 27.3 °F /  -2.6 °C 30.02 in /  1016.5 hPa SSW 4.5 mph /  7.2 km/h 7.0 mph /  11.3 km/h 82 % 0.00 in /  0 mm
04:23 32.3 °F /  0.2 °C 27.4 °F /  -2.6 °C 30.02 in /  1016.5 hPa WSW 5.1 mph /  8.2 km/h 8.1 mph /  13 km/h 82 % 0.00 in /  0 mm
04:26 32.3 °F /  0.2 °C 27.4 °F /  -2.6 °C 30.03 in /  1016.8 hPa SW 3.3 mph /  5.3 km/h 8.1 mph /  13 km/h 82 % 0.00 in /  0 mm
04:30 32.4 °F /  0.2 °C 27.5 °F /  -2.5 °C 30.03 in /  1016.8 hPa SW 6.8 mph /  10.9 km/h 11.5 mph /  18.5 km/h 82 % 0.00 in /  0 mm
04:31 32.4 °F /  0.2 °C 27.5 °F /  -2.5 °C 30.03 in /  1016.8 hPa SSW 3.3 mph /  5.3 km/h 11.5 mph /  18.5 km/h 82 % 0.00 in /  0 mm
04:32 32.4 °F /  0.2 °C 27.5 °F /  -2.5 °C 30.03 in /  1016.8 hPa SW 4.2 mph /  6.8 km/h 11.5 mph /  18.5 km/h 82 % 0.00 in /  0 mm
04:34 32.4 °F /  0.2 °C 27.5 °F /  -2.5 °C 30.03 in /  1016.8 hPa SW 3.3 mph /  5.3 km/h 6.9 mph /  11.1 km/h 82 % 0.00 in /  0 mm
04:35 32.5 °F /  0.3 °C 27.6 °F /  -2.4 °C 30.03 in /  1016.8 hPa South 3.6 mph /  5.8 km/h 6.0 mph /  9.7 km/h 82 % 0.00 in /  0 mm
04:38 32.6 °F /  0.3 °C 27.7 °F /  -2.4 °C 30.03 in /  1016.8 hPa SSW 2.6 mph /  4.2 km/h 8.1 mph /  13 km/h 82 % 0.00 in /  0 mm
04:40 32.6 °F /  0.3 °C 27.7 °F /  -2.4 °C 30.03 in /  1016.8 hPa West 4.6 mph /  7.4 km/h 7.0 mph /  11.3 km/h 82 % 0.00 in /  0 mm
04:41 32.6 °F /  0.3 °C 27.7 °F /  -2.4 °C 30.03 in /  1016.8 hPa SSW 4.1 mph /  6.6 km/h 8.1 mph /  13 km/h 82 % 0.00 in /  0 mm
04:42 32.6 °F /  0.3 °C 27.7 °F /  -2.4 °C 30.03 in /  1016.8 hPa SW 4.4 mph /  7.1 km/h 8.1 mph /  13 km/h 82 % 0.00 in /  0 mm
04:43 32.6 °F /  0.3 °C 27.7 °F /  -2.4 °C 30.03 in /  1016.8 hPa West 3.5 mph /  5.6 km/h 8.1 mph /  13 km/h 82 % 0.00 in /  0 mm
04:44 32.7 °F /  0.4 °C 27.8 °F /  -2.3 °C 30.03 in /  1016.8 hPa SW 4.1 mph /  6.6 km/h 8.0 mph /  12.9 km/h 82 % 0.00 in /  0 mm
04:45 32.7 °F /  0.4 °C 27.8 °F /  -2.3 °C 30.03 in /  1016.8 hPa SSW 4.6 mph /  7.4 km/h 6.9 mph /  11.1 km/h 82 % 0.00 in /  0 mm
04:48 32.8 °F /  0.4 °C 27.9 °F /  -2.3 °C 30.03 in /  1016.8 hPa WSW 2.8 mph /  4.5 km/h 9.2 mph /  14.8 km/h 82 % 0.00 in /  0 mm
04:53 32.9 °F /  0.5 °C 28.0 °F /  -2.2 °C 30.03 in /  1016.8 hPa WSW 1.9 mph /  3.1 km/h 4.6 mph /  7.4 km/h 82 % 0.00 in /  0 mm
04:54 33.0 °F /  0.6 °C 28.4 °F /  -2 °C 29.79 in /  1008.7 hPa SW 7.8 mph /  12.6 km/h 13.0 mph /  20.9 km/h 83 % 0.00 in /  0 mm
04:58 33.1 °F /  0.6 °C 28.5 °F /  -1.9 °C 30.03 in /  1016.8 hPa SW 5.7 mph /  9.2 km/h 11.5 mph /  18.5 km/h 83 % 0.00 in /  0 mm
04:59 33.2 °F /  0.7 °C 28.3 °F /  -2.1 °C 30.03 in /  1016.8 hPa WSW 2.7 mph /  4.3 km/h 6.9 mph /  11.1 km/h 82 % 0.00 in /  0 mm
05:02 33.3 °F /  0.7 °C 28.4 °F /  -2 °C 30.04 in /  1017.2 hPa SW 4.5 mph /  7.2 km/h 8.1 mph /  13 km/h 82 % 0.00 in /  0 mm
05:03 33.3 °F /  0.7 °C 28.4 °F /  -2 °C 30.03 in /  1016.8 hPa SW 3.8 mph /  6.1 km/h 8.1 mph /  13 km/h 82 % 0.00 in /  0 mm
05:04 33.4 °F /  0.8 °C 28.5 °F /  -1.9 °C 30.04 in /  1017.2 hPa West 4.3 mph /  6.9 km/h 7.0 mph /  11.3 km/h 82 % 0.00 in /  0 mm
05:08 33.5 °F /  0.8 °C 28.6 °F /  -1.9 °C 30.03 in /  1016.8 hPa SW 5.0 mph /  8 km/h 10.4 mph /  16.7 km/h 82 % 0.00 in /  0 mm
05:09 33.6 °F /  0.9 °C 28.7 °F /  -1.8 °C 30.04 in /  1017.2 hPa SSE 6.2 mph /  10 km/h 9.2 mph /  14.8 km/h 82 % 0.00 in /  0 mm
05:10 33.6 °F /  0.9 °C 28.7 °F /  -1.8 °C 30.04 in /  1017.2 hPa SW 5.8 mph /  9.3 km/h 9.2 mph /  14.8 km/h 82 % 0.00 in /  0 mm
05:11 33.6 °F /  0.9 °C 28.7 °F /  -1.8 °C 30.04 in /  1017.2 hPa SW 5.0 mph /  8 km/h 14.0 mph /  22.5 km/h 82 % 0.00 in /  0 mm
05:12 33.7 °F /  0.9 °C 28.8 °F /  -1.8 °C 30.04 in /  1017.2 hPa WSW 4.8 mph /  7.7 km/h 13.8 mph /  22.2 km/h 82 % 0.00 in /  0 mm
05:14 33.8 °F /  1 °C 28.9 °F /  -1.7 °C 30.04 in /  1017.2 hPa WSW 6.7 mph /  10.8 km/h 15.0 mph /  24.1 km/h 82 % 0.00 in /  0 mm
05:15 33.8 °F /  1 °C 28.9 °F /  -1.7 °C 30.04 in /  1017.2 hPa SW 9.1 mph /  14.6 km/h 15.0 mph /  24.1 km/h 82 % 0.00 in /  0 mm
05:16 33.9 °F /  1.1 °C 29.0 °F /  -1.7 °C 30.04 in /  1017.2 hPa SW 7.0 mph /  11.3 km/h 10.0 mph /  16.1 km/h 82 % 0.00 in /  0 mm
05:17 33.9 °F /  1.1 °C 29.0 °F /  -1.7 °C 30.04 in /  1017.2 hPa WSW 6.7 mph /  10.8 km/h 6.9 mph /  11.1 km/h 82 % 0.00 in /  0 mm
05:18 33.9 °F /  1.1 °C 29.0 °F /  -1.7 °C 30.04 in /  1017.2 hPa SW 5.1 mph /  8.2 km/h 10.4 mph /  16.7 km/h 82 % 0.00 in /  0 mm
05:19 33.9 °F /  1.1 °C 29.0 °F /  -1.7 °C 30.04 in /  1017.2 hPa SSW 4.8 mph /  7.7 km/h 9.2 mph /  14.8 km/h 82 % 0.00 in /  0 mm
05:20 34.0 °F /  1.1 °C 28.8 °F /  -1.8 °C 30.04 in /  1017.2 hPa WSW 6.3 mph /  10.1 km/h 11.5 mph /  18.5 km/h 81 % 0.00 in /  0 mm
05:22 34.0 °F /  1.1 °C 28.8 °F /  -1.8 °C 30.05 in /  1017.5 hPa WSW 5.5 mph /  8.9 km/h 11.5 mph /  18.5 km/h 81 % 0.00 in /  0 mm
05:23 34.0 °F /  1.1 °C 28.8 °F /  -1.8 °C 29.80 in /  1009 hPa SW 4.0 mph /  6.4 km/h 10.4 mph /  16.7 km/h 81 % 0.00 in /  0 mm
05:24 34.1 °F /  1.2 °C 28.9 °F /  -1.7 °C 30.05 in /  1017.5 hPa WSW 2.9 mph /  4.7 km/h 8.1 mph /  13 km/h 81 % 0.00 in /  0 mm
05:25 34.1 °F /  1.2 °C 28.9 °F /  -1.7 °C 29.80 in /  1009 hPa SW 3.0 mph /  4.8 km/h 8.1 mph /  13 km/h 81 % 0.00 in /  0 mm
05:26 34.1 °F /  1.2 °C 28.9 °F /  -1.7 °C 30.04 in /  1017.2 hPa SW 4.6 mph /  7.4 km/h 7.0 mph /  11.3 km/h 81 % 0.00 in /  0 mm
05:27 34.1 °F /  1.2 °C 28.9 °F /  -1.7 °C 30.04 in /  1017.2 hPa SSW 4.9 mph /  7.9 km/h 7.0 mph /  11.3 km/h 81 % 0.00 in /  0 mm
05:28 34.1 °F /  1.2 °C 28.9 °F /  -1.7 °C 30.05 in /  1017.5 hPa WSW 4.4 mph /  7.1 km/h 6.9 mph /  11.1 km/h 81 % 0.00 in /  0 mm
05:29 34.1 °F /  1.2 °C 28.9 °F /  -1.7 °C 30.05 in /  1017.5 hPa SW 4.4 mph /  7.1 km/h 10.0 mph /  16.1 km/h 81 % 0.00 in /  0 mm
05:30 34.1 °F /  1.2 °C 28.9 °F /  -1.7 °C 30.05 in /  1017.5 hPa WSW 4.9 mph /  7.9 km/h 11.5 mph /  18.5 km/h 81 % 0.00 in /  0 mm
05:32 34.1 °F /  1.2 °C 28.9 °F /  -1.7 °C 30.05 in /  1017.5 hPa WSW 6.3 mph /  10.1 km/h 8.1 mph /  13 km/h 81 % 0.00 in /  0 mm
05:34 34.1 °F /  1.2 °C 28.9 °F /  -1.7 °C 30.05 in /  1017.5 hPa SW 5.2 mph /  8.4 km/h 10.0 mph /  16.1 km/h 81 % 0.00 in /  0 mm
05:35 34.2 °F /  1.2 °C 29.0 °F /  -1.7 °C 30.04 in /  1017.2 hPa WSW 5.6 mph /  9 km/h 11.5 mph /  18.5 km/h 81 % 0.00 in /  0 mm
05:36 34.2 °F /  1.2 °C 29.0 °F /  -1.7 °C 30.05 in /  1017.5 hPa SSW 4.4 mph /  7.1 km/h 10.4 mph /  16.7 km/h 81 % 0.00 in /  0 mm
05:37 34.2 °F /  1.2 °C 29.0 °F /  -1.7 °C 30.05 in /  1017.5 hPa SSW 5.6 mph /  9 km/h 10.4 mph /  16.7 km/h 81 % 0.00 in /  0 mm
05:38 34.2 °F /  1.2 °C 29.0 °F /  -1.7 °C 30.04 in /  1017.2 hPa WSW 5.2 mph /  8.4 km/h 8.1 mph /  13 km/h 81 % 0.00 in /  0 mm
05:39 34.2 °F /  1.2 °C 29.0 °F /  -1.7 °C 30.05 in /  1017.5 hPa SW 5.0 mph /  8 km/h 11.5 mph /  18.5 km/h 81 % 0.00 in /  0 mm
05:41 34.2 °F /  1.2 °C 28.7 °F /  -1.8 °C 30.04 in /  1017.2 hPa SW 3.4 mph /  5.5 km/h 8.1 mph /  13 km/h 80 % 0.00 in /  0 mm
05:42 34.2 °F /  1.2 °C 28.7 °F /  -1.8 °C 30.04 in /  1017.2 hPa SSW 3.2 mph /  5.1 km/h 8.1 mph /  13 km/h 80 % 0.00 in /  0 mm
05:43 34.2 °F /  1.2 °C 28.7 °F /  -1.8 °C 30.05 in /  1017.5 hPa SW 6.0 mph /  9.7 km/h 8.0 mph /  12.9 km/h 80 % 0.00 in /  0 mm
05:44 34.2 °F /  1.2 °C 28.7 °F /  -1.8 °C 30.05 in /  1017.5 hPa WSW 5.9 mph /  9.5 km/h 10.4 mph /  16.7 km/h 80 % 0.00 in /  0 mm
05:47 34.2 °F /  1.2 °C 28.7 °F /  -1.8 °C 30.04 in /  1017.2 hPa WSW 3.6 mph /  5.8 km/h 10.4 mph /  16.7 km/h 80 % 0.00 in /  0 mm
05:49 34.2 °F /  1.2 °C 28.7 °F /  -1.8 °C 30.05 in /  1017.5 hPa SW 5.9 mph /  9.5 km/h 10.4 mph /  16.7 km/h 80 % 0.00 in /  0 mm
05:50 34.2 °F /  1.2 °C 28.7 °F /  -1.8 °C 29.80 in /  1009 hPa WSW 3.3 mph /  5.3 km/h 10.4 mph /  16.7 km/h 80 % 0.00 in /  0 mm
05:51 34.2 °F /  1.2 °C 28.7 °F /  -1.8 °C 30.05 in /  1017.5 hPa SW 5.0 mph /  8 km/h 10.0 mph /  16.1 km/h 80 % 0.00 in /  0 mm
05:52 34.2 °F /  1.2 °C 28.7 °F /  -1.8 °C 30.05 in /  1017.5 hPa SSW 5.2 mph /  8.4 km/h 11.5 mph /  18.5 km/h 80 % 0.00 in /  0 mm
05:53 34.2 °F /  1.2 °C 28.7 °F /  -1.8 °C 30.05 in /  1017.5 hPa SW 4.2 mph /  6.8 km/h 11.5 mph /  18.5 km/h 80 % 0.00 in /  0 mm
05:54 34.2 °F /  1.2 °C 28.7 °F /  -1.8 °C 30.05 in /  1017.5 hPa SW 3.6 mph /  5.8 km/h 11.5 mph /  18.5 km/h 80 % 0.00 in /  0 mm
05:55 34.1 °F /  1.2 °C 28.6 °F /  -1.9 °C 30.05 in /  1017.5 hPa SW 3.3 mph /  5.3 km/h 6.9 mph /  11.1 km/h 80 % 0.00 in /  0 mm
05:57 34.1 °F /  1.2 °C 28.6 °F /  -1.9 °C 30.05 in /  1017.5 hPa South 4.7 mph /  7.6 km/h 7.0 mph /  11.3 km/h 80 % 0.00 in /  0 mm
05:58 34.1 °F /  1.2 °C 28.6 °F /  -1.9 °C 30.04 in /  1017.2 hPa WSW 4.5 mph /  7.2 km/h 6.9 mph /  11.1 km/h 80 % 0.00 in /  0 mm
05:59 34.1 °F /  1.2 °C 28.6 °F /  -1.9 °C 29.80 in /  1009 hPa SSW 4.5 mph /  7.2 km/h 6.9 mph /  11.1 km/h 80 % 0.00 in /  0 mm
06:00 34.1 °F /  1.2 °C 28.6 °F /  -1.9 °C 30.05 in /  1017.5 hPa SW 3.8 mph /  6.1 km/h 8.1 mph /  13 km/h 80 % 0.00 in /  0 mm
06:02 34.0 °F /  1.1 °C 28.5 °F /  -1.9 °C 30.05 in /  1017.5 hPa SSW 3.1 mph /  5 km/h 8.1 mph /  13 km/h 80 % 0.00 in /  0 mm
06:03 34.0 °F /  1.1 °C 28.5 °F /  -1.9 °C 30.05 in /  1017.5 hPa SSW 3.3 mph /  5.3 km/h 6.0 mph /  9.7 km/h 80 % 0.00 in /  0 mm
06:04 34.0 °F /  1.1 °C 28.5 °F /  -1.9 °C 30.05 in /  1017.5 hPa SSW 4.8 mph /  7.7 km/h 10.4 mph /  16.7 km/h 80 % 0.00 in /  0 mm
06:06 33.9 °F /  1.1 °C 28.4 °F /  -2 °C 30.05 in /  1017.5 hPa SW 5.2 mph /  8.4 km/h 8.1 mph /  13 km/h 80 % 0.00 in /  0 mm
06:07 33.9 °F /  1.1 °C 28.4 °F /  -2 °C 29.80 in /  1009 hPa SSW 4.9 mph /  7.9 km/h 5.0 mph /  8 km/h 80 % 0.00 in /  0 mm
06:09 33.9 °F /  1.1 °C 28.4 °F /  -2 °C 30.05 in /  1017.5 hPa WSW 3.2 mph /  5.1 km/h 9.2 mph /  14.8 km/h 80 % 0.00 in /  0 mm
06:11 33.9 °F /  1.1 °C 28.4 °F /  -2 °C 30.05 in /  1017.5 hPa SSW 2.0 mph /  3.2 km/h 9.0 mph /  14.5 km/h 80 % 0.00 in /  0 mm
06:12 33.9 °F /  1.1 °C 28.4 °F /  -2 °C 30.05 in /  1017.5 hPa SW 4.1 mph /  6.6 km/h 7.0 mph /  11.3 km/h 80 % 0.00 in /  0 mm
06:13 33.8 °F /  1 °C 28.3 °F /  -2.1 °C 30.06 in /  1017.8 hPa SW 4.8 mph /  7.7 km/h 8.0 mph /  12.9 km/h 80 % 0.00 in /  0 mm
06:15 33.8 °F /  1 °C 28.3 °F /  -2.1 °C 30.06 in /  1017.8 hPa SSW 4.4 mph /  7.1 km/h 10.4 mph /  16.7 km/h 80 % 0.00 in /  0 mm
06:18 33.7 °F /  0.9 °C 28.2 °F /  -2.1 °C 30.06 in /  1017.8 hPa SSW 3.9 mph /  6.3 km/h 10.4 mph /  16.7 km/h 80 % 0.00 in /  0 mm
06:19 33.7 °F /  0.9 °C 28.2 °F /  -2.1 °C 30.06 in /  1017.8 hPa WSW 3.6 mph /  5.8 km/h 8.1 mph /  13 km/h 80 % 0.00 in /  0 mm
06:20 33.7 °F /  0.9 °C 28.2 °F /  -2.1 °C 30.06 in /  1017.8 hPa SW 3.9 mph /  6.3 km/h 8.1 mph /  13 km/h 80 % 0.00 in /  0 mm
06:21 33.7 °F /  0.9 °C 28.2 °F /  -2.1 °C 30.06 in /  1017.8 hPa SW 3.0 mph /  4.8 km/h 10.0 mph /  16.1 km/h 80 % 0.00 in /  0 mm
06:22 33.7 °F /  0.9 °C 28.2 °F /  -2.1 °C 30.06 in /  1017.8 hPa SSW 5.0 mph /  8 km/h 10.4 mph /  16.7 km/h 80 % 0.00 in /  0 mm
06:24 33.7 °F /  0.9 °C 28.2 °F /  -2.1 °C 30.06 in /  1017.8 hPa SW 3.8 mph /  6.1 km/h 8.0 mph /  12.9 km/h 80 % 0.00 in /  0 mm
06:25 33.6 °F /  0.9 °C 28.1 °F /  -2.2 °C 30.06 in /  1017.8 hPa SSW 4.2 mph /  6.8 km/h 8.1 mph /  13 km/h 80 % 0.00 in /  0 mm
06:27 33.6 °F /  0.9 °C 28.1 °F /  -2.2 °C 29.82 in /  1009.7 hPa WSW 5.3 mph /  8.5 km/h 9.0 mph /  14.5 km/h 80 % 0.00 in /  0 mm
06:28 33.6 °F /  0.9 °C 28.4 °F /  -2 °C 30.07 in /  1018.2 hPa SSW 6.8 mph /  10.9 km/h 10.0 mph /  16.1 km/h 81 % 0.00 in /  0 mm
06:30 33.6 °F /  0.9 °C 28.4 °F /  -2 °C 30.06 in /  1017.8 hPa SSW 4.0 mph /  6.4 km/h 8.1 mph /  13 km/h 81 % 0.00 in /  0 mm
06:31 33.6 °F /  0.9 °C 28.4 °F /  -2 °C 30.07 in /  1018.2 hPa SW 3.1 mph /  5 km/h 6.9 mph /  11.1 km/h 81 % 0.00 in /  0 mm
06:32 33.6 °F /  0.9 °C 28.4 °F /  -2 °C 30.07 in /  1018.2 hPa WSW 5.0 mph /  8 km/h 8.1 mph /  13 km/h 81 % 0.00 in /  0 mm
06:34 33.6 °F /  0.9 °C 28.4 °F /  -2 °C 30.07 in /  1018.2 hPa WSW 4.7 mph /  7.6 km/h 11.5 mph /  18.5 km/h 81 % 0.00 in /  0 mm
06:35 33.6 °F /  0.9 °C 28.4 °F /  -2 °C 30.07 in /  1018.2 hPa WSW 2.6 mph /  4.2 km/h 11.5 mph /  18.5 km/h 81 % 0.00 in /  0 mm
06:36 33.6 °F /  0.9 °C 28.4 °F /  -2 °C 30.07 in /  1018.2 hPa West 4.0 mph /  6.4 km/h 4.6 mph /  7.4 km/h 81 % 0.00 in /  0 mm
06:38 33.6 °F /  0.9 °C 28.4 °F /  -2 °C 30.07 in /  1018.2 hPa South 6.3 mph /  10.1 km/h 11.5 mph /  18.5 km/h 81 % 0.00 in /  0 mm
06:39 33.6 °F /  0.9 °C 28.4 °F /  -2 °C 30.07 in /  1018.2 hPa SW 3.5 mph /  5.6 km/h 6.9 mph /  11.1 km/h 81 % 0.00 in /  0 mm
06:41 33.6 °F /  0.9 °C 28.4 °F /  -2 °C 30.07 in /  1018.2 hPa WSW 4.8 mph /  7.7 km/h 8.0 mph /  12.9 km/h 81 % 0.00 in /  0 mm
06:45 33.6 °F /  0.9 °C 28.4 °F /  -2 °C 29.83 in /  1010 hPa SW 5.7 mph /  9.2 km/h 11.5 mph /  18.5 km/h 81 % 0.00 in /  0 mm
06:46 33.6 °F /  0.9 °C 28.4 °F /  -2 °C 30.08 in /  1018.5 hPa SW 2.0 mph /  3.2 km/h 8.1 mph /  13 km/h 81 % 0.00 in /  0 mm
06:47 33.6 °F /  0.9 °C 28.4 °F /  -2 °C 29.83 in /  1010 hPa SW 3.2 mph /  5.1 km/h 4.6 mph /  7.4 km/h 81 % 0.00 in /  0 mm
06:48 33.6 °F /  0.9 °C 28.4 °F /  -2 °C 30.08 in /  1018.5 hPa WSW 4.6 mph /  7.4 km/h 7.0 mph /  11.3 km/h 81 % 0.00 in /  0 mm
06:50 33.6 °F /  0.9 °C 28.4 °F /  -2 °C 30.08 in /  1018.5 hPa WSW 4.2 mph /  6.8 km/h 6.9 mph /  11.1 km/h 81 % 0.00 in /  0 mm
06:51 33.6 °F /  0.9 °C 28.4 °F /  -2 °C 30.08 in /  1018.5 hPa SW 3.2 mph /  5.1 km/h 5.8 mph /  9.3 km/h 81 % 0.00 in /  0 mm
06:52 33.6 °F /  0.9 °C 28.4 °F /  -2 °C 30.08 in /  1018.5 hPa WSW 4.5 mph /  7.2 km/h 9.0 mph /  14.5 km/h 81 % 0.00 in /  0 mm
06:53 33.6 °F /  0.9 °C 28.4 °F /  -2 °C 30.08 in /  1018.5 hPa SW 4.8 mph /  7.7 km/h 8.1 mph /  13 km/h 81 % 0.00 in /  0 mm
06:54 33.6 °F /  0.9 °C 28.4 °F /  -2 °C 30.08 in /  1018.5 hPa SW 5.4 mph /  8.7 km/h 10.4 mph /  16.7 km/h 81 % 0.00 in /  0 mm
06:56 33.6 °F /  0.9 °C 28.4 °F /  -2 °C 30.08 in /  1018.5 hPa SW 4.4 mph /  7.1 km/h 10.4 mph /  16.7 km/h 81 % 0.00 in /  0 mm
06:57 33.5 °F /  0.8 °C 28.3 °F /  -2.1 °C 30.08 in /  1018.5 hPa SSW 4.4 mph /  7.1 km/h 8.1 mph /  13 km/h 81 % 0.00 in /  0 mm
06:58 33.6 °F /  0.9 °C 28.4 °F /  -2 °C 30.08 in /  1018.5 hPa SW 4.1 mph /  6.6 km/h 5.8 mph /  9.3 km/h 81 % 0.00 in /  0 mm
06:59 33.6 °F /  0.9 °C 28.4 °F /  -2 °C 30.08 in /  1018.5 hPa WSW 3.7 mph /  6 km/h 9.0 mph /  14.5 km/h 81 % 0.00 in /  0 mm
07:00 33.5 °F /  0.8 °C 28.3 °F /  -2.1 °C 30.08 in /  1018.5 hPa SSW 5.1 mph /  8.2 km/h 9.2 mph /  14.8 km/h 81 % 0.00 in /  0 mm
07:02 33.5 °F /  0.8 °C 28.3 °F /  -2.1 °C 30.08 in /  1018.5 hPa SSW 4.5 mph /  7.2 km/h 6.9 mph /  11.1 km/h 81 % 0.00 in /  0 mm
07:03 33.5 °F /  0.8 °C 28.3 °F /  -2.1 °C 30.08 in /  1018.5 hPa SW 4.2 mph /  6.8 km/h 6.9 mph /  11.1 km/h 81 % 0.00 in /  0 mm
07:04 33.5 °F /  0.8 °C 28.3 °F /  -2.1 °C 29.84 in /  1010.4 hPa SW 2.7 mph /  4.3 km/h 6.9 mph /  11.1 km/h 81 % 0.00 in /  0 mm
07:05 33.5 °F /  0.8 °C 28.3 °F /  -2.1 °C 30.08 in /  1018.5 hPa SW 5.1 mph /  8.2 km/h 10.4 mph /  16.7 km/h 81 % 0.00 in /  0 mm
07:06 33.5 °F /  0.8 °C 28.3 °F /  -2.1 °C 30.08 in /  1018.5 hPa WSW 6.2 mph /  10 km/h 10.4 mph /  16.7 km/h 81 % 0.00 in /  0 mm
07:08 33.5 °F /  0.8 °C 28.3 °F /  -2.1 °C 30.08 in /  1018.5 hPa WSW 5.2 mph /  8.4 km/h 11.5 mph /  18.5 km/h 81 % 0.00 in /  0 mm
07:09 33.5 °F /  0.8 °C 28.3 °F /  -2.1 °C 30.09 in /  1018.8 hPa SW 4.0 mph /  6.4 km/h 7.0 mph /  11.3 km/h 81 % 0.00 in /  0 mm
07:10 33.5 °F /  0.8 °C 28.3 °F /  -2.1 °C 30.08 in /  1018.5 hPa WSW 3.2 mph /  5.1 km/h 6.9 mph /  11.1 km/h 81 % 0.00 in /  0 mm
07:13 33.4 °F /  0.8 °C 28.2 °F /  -2.1 °C 30.08 in /  1018.5 hPa WSW 3.9 mph /  6.3 km/h 9.0 mph /  14.5 km/h 81 % 0.00 in /  0 mm
07:15 33.4 °F /  0.8 °C 28.2 °F /  -2.1 °C 30.08 in /  1018.5 hPa SSW 5.3 mph /  8.5 km/h 10.4 mph /  16.7 km/h 81 % 0.00 in /  0 mm
07:17 33.4 °F /  0.8 °C 28.2 °F /  -2.1 °C 30.08 in /  1018.5 hPa SSE 4.2 mph /  6.8 km/h 5.8 mph /  9.3 km/h 81 % 0.00 in /  0 mm
07:18 33.4 °F /  0.8 °C 28.2 °F /  -2.1 °C 30.08 in /  1018.5 hPa SW 4.9 mph /  7.9 km/h 8.1 mph /  13 km/h 81 % 0.00 in /  0 mm
07:19 33.4 °F /  0.8 °C 28.2 °F /  -2.1 °C 30.09 in /  1018.8 hPa SW 5.1 mph /  8.2 km/h 7.0 mph /  11.3 km/h 81 % 0.00 in /  0 mm
07:24 33.3 °F /  0.7 °C 28.1 °F /  -2.2 °C 30.08 in /  1018.5 hPa South 4.2 mph /  6.8 km/h 6.9 mph /  11.1 km/h 81 % 0.00 in /  0 mm
07:25 33.3 °F /  0.7 °C 28.1 °F /  -2.2 °C 30.09 in /  1018.8 hPa SW 4.5 mph /  7.2 km/h 6.9 mph /  11.1 km/h 81 % 0.00 in /  0 mm
07:26 33.3 °F /  0.7 °C 28.1 °F /  -2.2 °C 30.08 in /  1018.5 hPa SSW 6.5 mph /  10.5 km/h 9.2 mph /  14.8 km/h 81 % 0.00 in /  0 mm
07:27 33.3 °F /  0.7 °C 28.1 °F /  -2.2 °C 30.08 in /  1018.5 hPa SSW 6.9 mph /  11.1 km/h 9.2 mph /  14.8 km/h 81 % 0.00 in /  0 mm
07:28 33.3 °F /  0.7 °C 28.1 °F /  -2.2 °C 30.08 in /  1018.5 hPa WSW 4.4 mph /  7.1 km/h 5.8 mph /  9.3 km/h 81 % 0.00 in /  0 mm
07:31 33.3 °F /  0.7 °C 28.1 °F /  -2.2 °C 30.08 in /  1018.5 hPa SW 5.7 mph /  9.2 km/h 10.4 mph /  16.7 km/h 81 % 0.00 in /  0 mm
07:33 33.3 °F /  0.7 °C 28.1 °F /  -2.2 °C 30.08 in /  1018.5 hPa WSW 7.3 mph /  11.7 km/h 11.0 mph /  17.7 km/h 81 % 0.00 in /  0 mm
07:34 33.3 °F /  0.7 °C 28.4 °F /  -2 °C 30.09 in /  1018.8 hPa SW 5.9 mph /  9.5 km/h 13.8 mph /  22.2 km/h 82 % 0.00 in /  0 mm
07:37 33.3 °F /  0.7 °C 28.4 °F /  -2 °C 30.09 in /  1018.8 hPa SSW 5.0 mph /  8 km/h 8.1 mph /  13 km/h 82 % 0.00 in /  0 mm
07:38 33.4 °F /  0.8 °C 28.5 °F /  -1.9 °C 30.09 in /  1018.8 hPa West 3.8 mph /  6.1 km/h 8.1 mph /  13 km/h 82 % 0.00 in /  0 mm
07:39 33.4 °F /  0.8 °C 28.5 °F /  -1.9 °C 30.09 in /  1018.8 hPa WSW 2.9 mph /  4.7 km/h 5.8 mph /  9.3 km/h 82 % 0.00 in /  0 mm
07:40 33.4 °F /  0.8 °C 28.5 °F /  -1.9 °C 30.09 in /  1018.8 hPa SSW 5.8 mph /  9.3 km/h 10.4 mph /  16.7 km/h 82 % 0.00 in /  0 mm
07:41 33.4 °F /  0.8 °C 28.5 °F /  -1.9 °C 30.09 in /  1018.8 hPa WSW 4.7 mph /  7.6 km/h 8.1 mph /  13 km/h 82 % 0.00 in /  0 mm
07:42 33.4 °F /  0.8 °C 28.2 °F /  -2.1 °C 30.09 in /  1018.8 hPa SW 4.5 mph /  7.2 km/h 8.1 mph /  13 km/h 81 % 0.00 in /  0 mm
07:43 33.4 °F /  0.8 °C 28.2 °F /  -2.1 °C 30.09 in /  1018.8 hPa SW 4.0 mph /  6.4 km/h 8.1 mph /  13 km/h 81 % 0.00 in /  0 mm
07:44 33.5 °F /  0.8 °C 28.3 °F /  -2.1 °C 30.09 in /  1018.8 hPa SW 3.7 mph /  6 km/h 10.0 mph /  16.1 km/h 81 % 0.00 in /  0 mm
07:45 33.5 °F /  0.8 °C 28.3 °F /  -2.1 °C 30.09 in /  1018.8 hPa SW 4.4 mph /  7.1 km/h 10.4 mph /  16.7 km/h 81 % 0.00 in /  0 mm
07:46 33.5 °F /  0.8 °C 28.3 °F /  -2.1 °C 30.10 in /  1019.2 hPa SW 5.2 mph /  8.4 km/h 8.1 mph /  13 km/h 81 % 0.00 in /  0 mm
07:47 33.5 °F /  0.8 °C 28.3 °F /  -2.1 °C 30.10 in /  1019.2 hPa SSW 3.3 mph /  5.3 km/h 8.1 mph /  13 km/h 81 % 0.00 in /  0 mm
07:48 33.5 °F /  0.8 °C 28.3 °F /  -2.1 °C 30.09 in /  1018.8 hPa SW 3.7 mph /  6 km/h 9.2 mph /  14.8 km/h 81 % 0.00 in /  0 mm
07:51 33.5 °F /  0.8 °C 28.3 °F /  -2.1 °C 30.10 in /  1019.2 hPa South 4.3 mph /  6.9 km/h 7.0 mph /  11.3 km/h 81 % 0.00 in /  0 mm
07:52 33.6 °F /  0.9 °C 28.4 °F /  -2 °C 30.10 in /  1019.2 hPa West 4.4 mph /  7.1 km/h 7.0 mph /  11.3 km/h 81 % 0.00 in /  0 mm
07:55 33.6 °F /  0.9 °C 28.4 °F /  -2 °C 30.10 in /  1019.2 hPa WSW 4.1 mph /  6.6 km/h 9.2 mph /  14.8 km/h 81 % 0.00 in /  0 mm
07:56 33.6 °F /  0.9 °C 28.4 °F /  -2 °C 30.10 in /  1019.2 hPa SW 3.4 mph /  5.5 km/h 4.6 mph /  7.4 km/h 81 % 0.00 in /  0 mm
07:58 33.7 °F /  0.9 °C 28.5 °F /  -1.9 °C 30.10 in /  1019.2 hPa WSW 2.1 mph /  3.4 km/h 8.0 mph /  12.9 km/h 81 % 0.00 in /  0 mm
07:59 33.7 °F /  0.9 °C 28.5 °F /  -1.9 °C 30.10 in /  1019.2 hPa WSW 3.6 mph /  5.8 km/h 8.1 mph /  13 km/h 81 % 0.00 in /  0 mm
08:00 33.7 °F /  0.9 °C 28.5 °F /  -1.9 °C 30.10 in /  1019.2 hPa WSW 6.0 mph /  9.7 km/h 10.0 mph /  16.1 km/h 81 % 0.00 in /  0 mm
08:01 33.8 °F /  1 °C 28.6 °F /  -1.9 °C 30.10 in /  1019.2 hPa SW 4.4 mph /  7.1 km/h 10.4 mph /  16.7 km/h 81 % 0.00 in /  0 mm
08:03 33.8 °F /  1 °C 28.6 °F /  -1.9 °C 30.10 in /  1019.2 hPa SW 3.3 mph /  5.3 km/h 4.6 mph /  7.4 km/h 81 % 0.00 in /  0 mm
08:04 33.8 °F /  1 °C 28.6 °F /  -1.9 °C 30.10 in /  1019.2 hPa SSW 3.8 mph /  6.1 km/h 9.0 mph /  14.5 km/h 81 % 0.00 in /  0 mm
08:12 33.9 °F /  1.1 °C 28.7 °F /  -1.8 °C 30.10 in /  1019.2 hPa SW 4.2 mph /  6.8 km/h 7.0 mph /  11.3 km/h 81 % 0.00 in /  0 mm
08:13 33.9 °F /  1.1 °C 28.7 °F /  -1.8 °C 30.10 in /  1019.2 hPa WSW 5.4 mph /  8.7 km/h 6.9 mph /  11.1 km/h 81 % 0.00 in /  0 mm
08:14 34.0 °F /  1.1 °C 28.8 °F /  -1.8 °C 30.10 in /  1019.2 hPa SSW 4.7 mph /  7.6 km/h 8.1 mph /  13 km/h 81 % 0.00 in /  0 mm
08:15 34.0 °F /  1.1 °C 28.8 °F /  -1.8 °C 30.10 in /  1019.2 hPa SW 4.9 mph /  7.9 km/h 9.2 mph /  14.8 km/h 81 % 0.00 in /  0 mm
08:16 34.0 °F /  1.1 °C 28.8 °F /  -1.8 °C 30.10 in /  1019.2 hPa SW 4.6 mph /  7.4 km/h 8.1 mph /  13 km/h 81 % 0.00 in /  0 mm
08:17 34.0 °F /  1.1 °C 28.8 °F /  -1.8 °C 30.10 in /  1019.2 hPa SSW 4.8 mph /  7.7 km/h 8.1 mph /  13 km/h 81 % 0.00 in /  0 mm
08:18 34.1 °F /  1.2 °C 28.9 °F /  -1.7 °C 30.11 in /  1019.5 hPa SW 3.6 mph /  5.8 km/h 5.8 mph /  9.3 km/h 81 % 0.00 in /  0 mm
08:19 34.0 °F /  1.1 °C 28.8 °F /  -1.8 °C 30.10 in /  1019.2 hPa South 4.6 mph /  7.4 km/h 8.0 mph /  12.9 km/h 81 % 0.00 in /  0 mm
08:20 34.1 °F /  1.2 °C 28.9 °F /  -1.7 °C 30.11 in /  1019.5 hPa WSW 6.3 mph /  10.1 km/h 8.1 mph /  13 km/h 81 % 0.00 in /  0 mm
08:21 34.1 °F /  1.2 °C 28.9 °F /  -1.7 °C 29.86 in /  1011.1 hPa SW 6.0 mph /  9.7 km/h 10.0 mph /  16.1 km/h 81 % 0.00 in /  0 mm
08:22 34.1 °F /  1.2 °C 28.9 °F /  -1.7 °C 30.11 in /  1019.5 hPa WSW 5.4 mph /  8.7 km/h 10.4 mph /  16.7 km/h 81 % 0.00 in /  0 mm
08:25 34.2 °F /  1.2 °C 28.7 °F /  -1.8 °C 30.11 in /  1019.5 hPa SW 4.9 mph /  7.9 km/h 6.9 mph /  11.1 km/h 80 % 0.00 in /  0 mm
08:26 34.2 °F /  1.2 °C 28.7 °F /  -1.8 °C 30.11 in /  1019.5 hPa West 3.5 mph /  5.6 km/h 5.8 mph /  9.3 km/h 80 % 0.00 in /  0 mm
08:27 34.3 °F /  1.3 °C 28.8 °F /  -1.8 °C 30.11 in /  1019.5 hPa South 6.1 mph /  9.8 km/h 9.0 mph /  14.5 km/h 80 % 0.00 in /  0 mm
08:28 34.3 °F /  1.3 °C 28.8 °F /  -1.8 °C 30.11 in /  1019.5 hPa WSW 6.8 mph /  10.9 km/h 10.0 mph /  16.1 km/h 80 % 0.00 in /  0 mm
08:29 34.3 °F /  1.3 °C 28.8 °F /  -1.8 °C 30.11 in /  1019.5 hPa WSW 7.3 mph /  11.7 km/h 12.7 mph /  20.4 km/h 80 % 0.00 in /  0 mm
08:30 34.3 °F /  1.3 °C 28.8 °F /  -1.8 °C 30.11 in /  1019.5 hPa WSW 6.0 mph /  9.7 km/h 9.2 mph /  14.8 km/h 80 % 0.00 in /  0 mm
08:31 34.3 °F /  1.3 °C 28.8 °F /  -1.8 °C 30.11 in /  1019.5 hPa SW 5.8 mph /  9.3 km/h 9.2 mph /  14.8 km/h 80 % 0.00 in /  0 mm
08:34 34.5 °F /  1.4 °C 29.0 °F /  -1.7 °C 30.11 in /  1019.5 hPa SW 5.6 mph /  9 km/h 11.5 mph /  18.5 km/h 80 % 0.00 in /  0 mm
08:35 34.5 °F /  1.4 °C 29.0 °F /  -1.7 °C 30.12 in /  1019.9 hPa SW 6.0 mph /  9.7 km/h 11.0 mph /  17.7 km/h 80 % 0.00 in /  0 mm
08:37 34.6 °F /  1.4 °C 29.1 °F /  -1.6 °C 30.12 in /  1019.9 hPa WSW 9.1 mph /  14.6 km/h 15.0 mph /  24.1 km/h 80 % 0.00 in /  0 mm
08:38 34.7 °F /  1.5 °C 29.2 °F /  -1.6 °C 29.87 in /  1011.4 hPa WSW 7.2 mph /  11.6 km/h 11.5 mph /  18.5 km/h 80 % 0.00 in /  0 mm
08:39 34.7 °F /  1.5 °C 28.9 °F /  -1.7 °C 30.12 in /  1019.9 hPa WSW 5.2 mph /  8.4 km/h 11.5 mph /  18.5 km/h 79 % 0.00 in /  0 mm
08:40 34.7 °F /  1.5 °C 28.9 °F /  -1.7 °C 30.12 in /  1019.9 hPa WSW 4.3 mph /  6.9 km/h 11.5 mph /  18.5 km/h 79 % 0.00 in /  0 mm
08:41 34.8 °F /  1.6 °C 29.2 °F /  -1.6 °C 30.12 in /  1019.9 hPa SW 2.0 mph /  3.2 km/h 12.0 mph /  19.3 km/h 80 % 0.00 in /  0 mm
08:43 34.9 °F /  1.6 °C 29.0 °F /  -1.7 °C 29.87 in /  1011.4 hPa SW 2.9 mph /  4.7 km/h 8.0 mph /  12.9 km/h 79 % 0.00 in /  0 mm
08:44 34.9 °F /  1.6 °C 29.0 °F /  -1.7 °C 30.12 in /  1019.9 hPa SW 4.5 mph /  7.2 km/h 9.2 mph /  14.8 km/h 79 % 0.00 in /  0 mm
08:45 35.0 °F /  1.7 °C 29.1 °F /  -1.6 °C 30.12 in /  1019.9 hPa SW 4.4 mph /  7.1 km/h 9.2 mph /  14.8 km/h 79 % 0.00 in /  0 mm
08:46 35.0 °F /  1.7 °C 29.1 °F /  -1.6 °C 30.12 in /  1019.9 hPa West 4.6 mph /  7.4 km/h 6.9 mph /  11.1 km/h 79 % 0.00 in /  0 mm
08:47 35.0 °F /  1.7 °C 29.1 °F /  -1.6 °C 30.12 in /  1019.9 hPa WSW 4.1 mph /  6.6 km/h 9.2 mph /  14.8 km/h 79 % 0.00 in /  0 mm
08:50 35.2 °F /  1.8 °C 29.3 °F /  -1.5 °C 30.12 in /  1019.9 hPa WSW 7.5 mph /  12.1 km/h 12.7 mph /  20.4 km/h 79 % 0.00 in /  0 mm
08:51 35.2 °F /  1.8 °C 29.3 °F /  -1.5 °C 30.12 in /  1019.9 hPa WSW 6.6 mph /  10.6 km/h 12.7 mph /  20.4 km/h 79 % 0.00 in /  0 mm
08:52 35.2 °F /  1.8 °C 29.3 °F /  -1.5 °C 30.12 in /  1019.9 hPa WSW 5.6 mph /  9 km/h 10.4 mph /  16.7 km/h 79 % 0.00 in /  0 mm
08:53 35.3 °F /  1.8 °C 29.4 °F /  -1.4 °C 30.12 in /  1019.9 hPa SW 3.4 mph /  5.5 km/h 9.2 mph /  14.8 km/h 79 % 0.00 in /  0 mm
08:56 35.5 °F /  1.9 °C 29.3 °F /  -1.5 °C 30.13 in /  1020.2 hPa WSW 6.2 mph /  10 km/h 9.2 mph /  14.8 km/h 78 % 0.00 in /  0 mm
08:57 35.5 °F /  1.9 °C 29.3 °F /  -1.5 °C 30.13 in /  1020.2 hPa WSW 6.5 mph /  10.5 km/h 9.2 mph /  14.8 km/h 78 % 0.00 in /  0 mm
08:58 35.6 °F /  2 °C 29.4 °F /  -1.4 °C 30.13 in /  1020.2 hPa SW 2.5 mph /  4 km/h 10.4 mph /  16.7 km/h 78 % 0.00 in /  0 mm
08:59 35.6 °F /  2 °C 29.4 °F /  -1.4 °C 30.13 in /  1020.2 hPa SW 5.3 mph /  8.5 km/h 9.2 mph /  14.8 km/h 78 % 0.00 in /  0 mm
09:00 35.7 °F /  2.1 °C 29.5 °F /  -1.4 °C 30.13 in /  1020.2 hPa SW 4.5 mph /  7.2 km/h 9.2 mph /  14.8 km/h 78 % 0.00 in /  0 mm
09:02 35.8 °F /  2.1 °C 29.6 °F /  -1.3 °C 30.13 in /  1020.2 hPa West 5.1 mph /  8.2 km/h 8.1 mph /  13 km/h 78 % 0.00 in /  0 mm
09:03 35.9 °F /  2.2 °C 29.4 °F /  -1.4 °C 30.13 in /  1020.2 hPa SSW 3.2 mph /  5.1 km/h 8.1 mph /  13 km/h 77 % 0.00 in /  0 mm
09:04 35.9 °F /  2.2 °C 29.4 °F /  -1.4 °C 30.13 in /  1020.2 hPa WSW 4.9 mph /  7.9 km/h 11.0 mph /  17.7 km/h 77 % 0.00 in /  0 mm
09:06 36.0 °F /  2.2 °C 29.5 °F /  -1.4 °C 30.13 in /  1020.2 hPa WSW 5.9 mph /  9.5 km/h 13.0 mph /  20.9 km/h 77 % 0.00 in /  0 mm
09:07 36.1 °F /  2.3 °C 29.6 °F /  -1.3 °C 30.14 in /  1020.5 hPa SSW 5.9 mph /  9.5 km/h 9.2 mph /  14.8 km/h 77 % 0.00 in /  0 mm
09:08 36.1 °F /  2.3 °C 29.6 °F /  -1.3 °C 30.13 in /  1020.2 hPa SW 5.4 mph /  8.7 km/h 9.0 mph /  14.5 km/h 77 % 0.00 in /  0 mm
09:09 36.2 °F /  2.3 °C 29.7 °F /  -1.3 °C 30.13 in /  1020.2 hPa West 4.8 mph /  7.7 km/h 9.2 mph /  14.8 km/h 77 % 0.00 in /  0 mm
09:10 36.2 °F /  2.3 °C 29.7 °F /  -1.3 °C 30.13 in /  1020.2 hPa WSW 3.4 mph /  5.5 km/h 9.2 mph /  14.8 km/h 77 % 0.00 in /  0 mm
09:12 36.3 °F /  2.4 °C 29.8 °F /  -1.2 °C 30.14 in /  1020.5 hPa SW 4.1 mph /  6.6 km/h 11.5 mph /  18.5 km/h 77 % 0.00 in /  0 mm
09:15 36.5 °F /  2.5 °C 29.7 °F /  -1.3 °C 30.14 in /  1020.5 hPa West 4.9 mph /  7.9 km/h 11.5 mph /  18.5 km/h 76 % 0.00 in /  0 mm
09:17 36.6 °F /  2.6 °C 29.7 °F /  -1.3 °C 30.14 in /  1020.5 hPa West 7.2 mph /  11.6 km/h 11.5 mph /  18.5 km/h 76 % 0.00 in /  0 mm
09:18 36.7 °F /  2.6 °C 29.8 °F /  -1.2 °C 30.14 in /  1020.5 hPa SSW 2.8 mph /  4.5 km/h 7.0 mph /  11.3 km/h 76 % 0.00 in /  0 mm
09:20 36.9 °F /  2.7 °C 29.7 °F /  -1.3 °C 30.14 in /  1020.5 hPa West 5.7 mph /  9.2 km/h 10.4 mph /  16.7 km/h 75 % 0.00 in /  0 mm
09:21 36.9 °F /  2.7 °C 29.7 °F /  -1.3 °C 29.90 in /  1012.4 hPa West 5.0 mph /  8 km/h 10.0 mph /  16.1 km/h 75 % 0.00 in /  0 mm
09:25 37.2 °F /  2.9 °C 29.7 °F /  -1.3 °C 30.14 in /  1020.5 hPa WSW 7.5 mph /  12.1 km/h 11.5 mph /  18.5 km/h 74 % 0.00 in /  0 mm
09:26 37.2 °F /  2.9 °C 29.7 °F /  -1.3 °C 30.14 in /  1020.5 hPa WSW 7.0 mph /  11.3 km/h 12.0 mph /  19.3 km/h 74 % 0.00 in /  0 mm
09:28 37.4 °F /  3 °C 29.9 °F /  -1.2 °C 30.14 in /  1020.5 hPa SW 5.4 mph /  8.7 km/h 11.5 mph /  18.5 km/h 74 % 0.00 in /  0 mm
09:29 37.5 °F /  3.1 °C 30.0 °F /  -1.1 °C 29.90 in /  1012.4 hPa WSW 8.8 mph /  14.2 km/h 12.0 mph /  19.3 km/h 74 % 0.00 in /  0 mm
09:30 37.5 °F /  3.1 °C 29.6 °F /  -1.3 °C 30.14 in /  1020.5 hPa West 9.1 mph /  14.6 km/h 15.0 mph /  24.1 km/h 73 % 0.00 in /  0 mm
09:31 37.6 °F /  3.1 °C 29.7 °F /  -1.3 °C 30.14 in /  1020.5 hPa SW 3.9 mph /  6.3 km/h 15.0 mph /  24.1 km/h 73 % 0.00 in /  0 mm
09:32 37.7 °F /  3.2 °C 29.8 °F /  -1.2 °C 30.14 in /  1020.5 hPa WSW 7.6 mph /  12.2 km/h 13.8 mph /  22.2 km/h 73 % 0.00 in /  0 mm
09:33 37.7 °F /  3.2 °C 29.8 °F /  -1.2 °C 30.14 in /  1020.5 hPa WSW 5.9 mph /  9.5 km/h 13.8 mph /  22.2 km/h 73 % 0.00 in /  0 mm
09:34 37.8 °F /  3.2 °C 29.9 °F /  -1.2 °C 30.14 in /  1020.5 hPa SW 5.4 mph /  8.7 km/h 11.5 mph /  18.5 km/h 73 % 0.00 in /  0 mm
09:38 38.0 °F /  3.3 °C 30.1 °F /  -1.1 °C 30.14 in /  1020.5 hPa SW 4.9 mph /  7.9 km/h 9.0 mph /  14.5 km/h 73 % 0.00 in /  0 mm
09:39 38.0 °F /  3.3 °C 29.8 °F /  -1.2 °C 29.90 in /  1012.4 hPa SW 6.1 mph /  9.8 km/h 12.0 mph /  19.3 km/h 72 % 0.00 in /  0 mm
09:40 38.0 °F /  3.3 °C 29.8 °F /  -1.2 °C 30.14 in /  1020.5 hPa WSW 7.1 mph /  11.4 km/h 11.5 mph /  18.5 km/h 72 % 0.00 in /  0 mm
09:41 38.1 °F /  3.4 °C 29.9 °F /  -1.2 °C 30.14 in /  1020.5 hPa WSW 7.0 mph /  11.3 km/h 11.5 mph /  18.5 km/h 72 % 0.00 in /  0 mm
09:42 38.2 °F /  3.4 °C 30.0 °F /  -1.1 °C 30.14 in /  1020.5 hPa West 8.2 mph /  13.2 km/h 12.0 mph /  19.3 km/h 72 % 0.00 in /  0 mm
09:43 38.2 °F /  3.4 °C 30.0 °F /  -1.1 °C 30.14 in /  1020.5 hPa WSW 7.0 mph /  11.3 km/h 11.5 mph /  18.5 km/h 72 % 0.00 in /  0 mm
09:45 38.3 °F /  3.5 °C 30.1 °F /  -1.1 °C 30.14 in /  1020.5 hPa WSW 6.1 mph /  9.8 km/h 11.5 mph /  18.5 km/h 72 % 0.00 in /  0 mm
09:48 38.5 °F /  3.6 °C 29.9 °F /  -1.2 °C 30.14 in /  1020.5 hPa West 7.7 mph /  12.4 km/h 11.5 mph /  18.5 km/h 71 % 0.00 in /  0 mm
09:50 38.5 °F /  3.6 °C 29.9 °F /  -1.2 °C 30.15 in /  1020.9 hPa WSW 7.2 mph /  11.6 km/h 15.0 mph /  24.1 km/h 71 % 0.00 in /  0 mm
09:51 38.6 °F /  3.7 °C 30.0 °F /  -1.1 °C 30.14 in /  1020.5 hPa SSW 6.9 mph /  11.1 km/h 15.0 mph /  24.1 km/h 71 % 0.00 in /  0 mm
09:52 38.6 °F /  3.7 °C 30.0 °F /  -1.1 °C 30.14 in /  1020.5 hPa West 4.0 mph /  6.4 km/h 11.5 mph /  18.5 km/h 71 % 0.00 in /  0 mm
09:53 38.7 °F /  3.7 °C 30.1 °F /  -1.1 °C 30.14 in /  1020.5 hPa WSW 6.4 mph /  10.3 km/h 8.1 mph /  13 km/h 71 % 0.00 in /  0 mm
09:56 38.8 °F /  3.8 °C 29.8 °F /  -1.2 °C 30.15 in /  1020.9 hPa West 7.9 mph /  12.7 km/h 19.0 mph /  30.6 km/h 70 % 0.00 in /  0 mm
10:02 39.2 °F /  4 °C 29.9 °F /  -1.2 °C 30.14 in /  1020.5 hPa WSW 9.3 mph /  15 km/h 19.0 mph /  30.6 km/h 69 % 0.00 in /  0 mm
10:03 39.3 °F /  4.1 °C 29.6 °F /  -1.3 °C 30.14 in /  1020.5 hPa WSW 9.2 mph /  14.8 km/h 19.6 mph /  31.5 km/h 68 % 0.00 in /  0 mm
10:04 39.3 °F /  4.1 °C 29.6 °F /  -1.3 °C 29.90 in /  1012.4 hPa West 8.1 mph /  13 km/h 13.0 mph /  20.9 km/h 68 % 0.00 in /  0 mm
10:05 39.3 °F /  4.1 °C 29.6 °F /  -1.3 °C 30.14 in /  1020.5 hPa West 7.9 mph /  12.7 km/h 13.0 mph /  20.9 km/h 68 % 0.00 in /  0 mm
10:06 39.4 °F /  4.1 °C 29.7 °F /  -1.3 °C 30.14 in /  1020.5 hPa West 10.4 mph /  16.7 km/h 14.0 mph /  22.5 km/h 68 % 0.00 in /  0 mm
10:07 39.5 °F /  4.2 °C 29.8 °F /  -1.2 °C 30.14 in /  1020.5 hPa SSW 9.2 mph /  14.8 km/h 13.8 mph /  22.2 km/h 68 % 0.00 in /  0 mm
10:09 39.6 °F /  4.2 °C 29.5 °F /  -1.4 °C 30.14 in /  1020.5 hPa West 8.6 mph /  13.8 km/h 16.0 mph /  25.7 km/h 67 % 0.00 in /  0 mm
10:10 39.6 °F /  4.2 °C 29.5 °F /  -1.4 °C 30.14 in /  1020.5 hPa West 5.0 mph /  8 km/h 16.1 mph /  25.9 km/h 67 % 0.00 in /  0 mm
10:11 39.6 °F /  4.2 °C 29.5 °F /  -1.4 °C 30.14 in /  1020.5 hPa WNW 8.1 mph /  13 km/h 15.0 mph /  24.1 km/h 67 % 0.00 in /  0 mm
10:12 39.7 °F /  4.3 °C 29.6 °F /  -1.3 °C 30.14 in /  1020.5 hPa WNW 6.6 mph /  10.6 km/h 11.5 mph /  18.5 km/h 67 % 0.00 in /  0 mm
10:13 39.7 °F /  4.3 °C 29.6 °F /  -1.3 °C 30.14 in /  1020.5 hPa WNW 8.9 mph /  14.3 km/h 11.5 mph /  18.5 km/h 67 % 0.00 in /  0 mm
10:14 39.8 °F /  4.3 °C 29.7 °F /  -1.3 °C 30.14 in /  1020.5 hPa SW 3.3 mph /  5.3 km/h 11.5 mph /  18.5 km/h 67 % 0.00 in /  0 mm
10:15 39.8 °F /  4.3 °C 29.7 °F /  -1.3 °C 30.14 in /  1020.5 hPa SSW 8.7 mph /  14 km/h 15.0 mph /  24.1 km/h 67 % 0.00 in /  0 mm
10:16 39.8 °F /  4.3 °C 29.7 °F /  -1.3 °C 30.14 in /  1020.5 hPa West 8.8 mph /  14.2 km/h 10.0 mph /  16.1 km/h 67 % 0.00 in /  0 mm
10:18 40.0 °F /  4.4 °C 29.9 °F /  -1.2 °C 30.14 in /  1020.5 hPa WSW 5.0 mph /  8 km/h 9.0 mph /  14.5 km/h 67 % 0.00 in /  0 mm
10:19 40.0 °F /  4.4 °C 29.9 °F /  -1.2 °C 29.90 in /  1012.4 hPa WNW 5.8 mph /  9.3 km/h 11.5 mph /  18.5 km/h 67 % 0.00 in /  0 mm
10:20 40.0 °F /  4.4 °C 29.9 °F /  -1.2 °C 30.14 in /  1020.5 hPa WNW 4.3 mph /  6.9 km/h 10.4 mph /  16.7 km/h 67 % 0.00 in /  0 mm
10:21 40.1 °F /  4.5 °C 30.0 °F /  -1.1 °C 30.14 in /  1020.5 hPa WNW 3.6 mph /  5.8 km/h 10.4 mph /  16.7 km/h 67 % 0.00 in /  0 mm
10:22 40.1 °F /  4.5 °C 30.0 °F /  -1.1 °C 30.14 in /  1020.5 hPa WSW 3.5 mph /  5.6 km/h 9.2 mph /  14.8 km/h 67 % 0.00 in /  0 mm
10:23 40.2 °F /  4.6 °C 30.1 °F /  -1.1 °C 30.14 in /  1020.5 hPa West 6.8 mph /  10.9 km/h 15.0 mph /  24.1 km/h 67 % 0.00 in /  0 mm
10:24 40.2 °F /  4.6 °C 29.7 °F /  -1.3 °C 30.14 in /  1020.5 hPa NW 7.8 mph /  12.6 km/h 15.0 mph /  24.1 km/h 66 % 0.00 in /  0 mm
10:27 40.4 °F /  4.7 °C 29.9 °F /  -1.2 °C 30.14 in /  1020.5 hPa West 5.9 mph /  9.5 km/h 13.8 mph /  22.2 km/h 66 % 0.00 in /  0 mm
10:28 40.4 °F /  4.7 °C 29.9 °F /  -1.2 °C 30.14 in /  1020.5 hPa WNW 2.3 mph /  3.7 km/h 10.4 mph /  16.7 km/h 66 % 0.00 in /  0 mm
10:30 40.4 °F /  4.7 °C 29.9 °F /  -1.2 °C 30.14 in /  1020.5 hPa WNW 6.5 mph /  10.5 km/h 15.0 mph /  24.1 km/h 66 % 0.00 in /  0 mm
10:31 40.4 °F /  4.7 °C 29.9 °F /  -1.2 °C 30.14 in /  1020.5 hPa West 5.0 mph /  8 km/h 15.0 mph /  24.1 km/h 66 % 0.00 in /  0 mm
10:33 40.5 °F /  4.7 °C 30.4 °F /  -0.9 °C 30.14 in /  1020.5 hPa West 4.9 mph /  7.9 km/h 9.2 mph /  14.8 km/h 67 % 0.00 in /  0 mm
10:34 40.5 °F /  4.7 °C 30.4 °F /  -0.9 °C 30.14 in /  1020.5 hPa WSW 4.6 mph /  7.4 km/h 9.2 mph /  14.8 km/h 67 % 0.00 in /  0 mm
10:35 40.5 °F /  4.7 °C 30.4 °F /  -0.9 °C 29.90 in /  1012.4 hPa WNW 5.2 mph /  8.4 km/h 10.0 mph /  16.1 km/h 67 % 0.00 in /  0 mm
10:36 40.6 °F /  4.8 °C 30.5 °F /  -0.8 °C 30.14 in /  1020.5 hPa WNW 5.0 mph /  8 km/h 11.5 mph /  18.5 km/h 67 % 0.00 in /  0 mm
10:37 40.6 °F /  4.8 °C 30.5 °F /  -0.8 °C 30.14 in /  1020.5 hPa WSW 5.4 mph /  8.7 km/h 11.5 mph /  18.5 km/h 67 % 0.00 in /  0 mm
10:38 40.6 °F /  4.8 °C 30.5 °F /  -0.8 °C 30.14 in /  1020.5 hPa WSW 4.3 mph /  6.9 km/h 10.4 mph /  16.7 km/h 67 % 0.00 in /  0 mm
10:44 40.5 °F /  4.7 °C 30.4 °F /  -0.9 °C 30.14 in /  1020.5 hPa West 7.5 mph /  12.1 km/h 12.0 mph /  19.3 km/h 67 % 0.00 in /  0 mm
10:45 40.5 °F /  4.7 °C 30.4 °F /  -0.9 °C 30.14 in /  1020.5 hPa WSW 7.2 mph /  11.6 km/h 14.0 mph /  22.5 km/h 67 % 0.00 in /  0 mm
10:48 40.5 °F /  4.7 °C 30.4 °F /  -0.9 °C 30.14 in /  1020.5 hPa WSW 6.6 mph /  10.6 km/h 12.7 mph /  20.4 km/h 67 % 0.00 in /  0 mm
10:50 40.5 °F /  4.7 °C 30.4 °F /  -0.9 °C 30.14 in /  1020.5 hPa West 4.8 mph /  7.7 km/h 13.8 mph /  22.2 km/h 67 % 0.00 in /  0 mm
10:51 40.4 °F /  4.7 °C 30.3 °F /  -0.9 °C 30.14 in /  1020.5 hPa West 6.9 mph /  11.1 km/h 10.4 mph /  16.7 km/h 67 % 0.00 in /  0 mm
10:54 40.5 °F /  4.7 °C 30.4 °F /  -0.9 °C 30.14 in /  1020.5 hPa NW 7.2 mph /  11.6 km/h 10.0 mph /  16.1 km/h 67 % 0.00 in /  0 mm
10:55 40.5 °F /  4.7 °C 30.4 °F /  -0.9 °C 30.14 in /  1020.5 hPa West 7.7 mph /  12.4 km/h 8.0 mph /  12.9 km/h 67 % 0.00 in /  0 mm
10:56 40.5 °F /  4.7 °C 30.4 °F /  -0.9 °C 30.14 in /  1020.5 hPa WSW 4.8 mph /  7.7 km/h 11.5 mph /  18.5 km/h 67 % 0.00 in /  0 mm
10:57 40.5 °F /  4.7 °C 30.4 °F /  -0.9 °C 29.90 in /  1012.4 hPa WSW 7.2 mph /  11.6 km/h 15.0 mph /  24.1 km/h 67 % 0.00 in /  0 mm
10:58 40.5 °F /  4.7 °C 30.4 °F /  -0.9 °C 30.14 in /  1020.5 hPa WSW 4.4 mph /  7.1 km/h 11.5 mph /  18.5 km/h 67 % 0.00 in /  0 mm
11:00 40.5 °F /  4.7 °C 30.4 °F /  -0.9 °C 30.14 in /  1020.5 hPa WNW 3.8 mph /  6.1 km/h 6.9 mph /  11.1 km/h 67 % 0.00 in /  0 mm
11:01 40.5 °F /  4.7 °C 30.4 °F /  -0.9 °C 30.14 in /  1020.5 hPa NW 3.8 mph /  6.1 km/h 6.0 mph /  9.7 km/h 67 % 0.00 in /  0 mm
11:02 40.5 °F /  4.7 °C 30.4 °F /  -0.9 °C 30.14 in /  1020.5 hPa NW 3.3 mph /  5.3 km/h 10.0 mph /  16.1 km/h 67 % 0.00 in /  0 mm
11:03 40.6 °F /  4.8 °C 30.5 °F /  -0.8 °C 30.14 in /  1020.5 hPa NW 3.7 mph /  6 km/h 10.4 mph /  16.7 km/h 67 % 0.00 in /  0 mm
11:04 40.5 °F /  4.7 °C 30.4 °F /  -0.9 °C 30.14 in /  1020.5 hPa WNW 3.2 mph /  5.1 km/h 8.1 mph /  13 km/h 67 % 0.00 in /  0 mm
11:05 40.6 °F /  4.8 °C 30.5 °F /  -0.8 °C 30.14 in /  1020.5 hPa West 1.4 mph /  2.3 km/h 8.1 mph /  13 km/h 67 % 0.00 in /  0 mm
11:06 40.6 °F /  4.8 °C 30.5 °F /  -0.8 °C 30.14 in /  1020.5 hPa WSW 4.2 mph /  6.8 km/h 10.4 mph /  16.7 km/h 67 % 0.00 in /  0 mm
11:09 40.6 °F /  4.8 °C 30.5 °F /  -0.8 °C 29.90 in /  1012.4 hPa WSW 4.8 mph /  7.7 km/h 10.4 mph /  16.7 km/h 67 % 0.00 in /  0 mm
11:10 40.6 °F /  4.8 °C 30.1 °F /  -1.1 °C 30.14 in /  1020.5 hPa West 8.1 mph /  13 km/h 15.0 mph /  24.1 km/h 66 % 0.00 in /  0 mm
11:11 40.6 °F /  4.8 °C 30.1 °F /  -1.1 °C 30.14 in /  1020.5 hPa WSW 7.9 mph /  12.7 km/h 11.5 mph /  18.5 km/h 66 % 0.00 in /  0 mm
11:13 40.6 °F /  4.8 °C 30.1 °F /  -1.1 °C 29.89 in /  1012.1 hPa SW 5.6 mph /  9 km/h 9.2 mph /  14.8 km/h 66 % 0.00 in /  0 mm
11:14 40.6 °F /  4.8 °C 30.1 °F /  -1.1 °C 30.14 in /  1020.5 hPa West 5.9 mph /  9.5 km/h 10.4 mph /  16.7 km/h 66 % 0.00 in /  0 mm
11:15 40.6 °F /  4.8 °C 30.1 °F /  -1.1 °C 30.13 in /  1020.2 hPa WSW 4.0 mph /  6.4 km/h 10.4 mph /  16.7 km/h 66 % 0.00 in /  0 mm
11:17 40.6 °F /  4.8 °C 30.1 °F /  -1.1 °C 30.14 in /  1020.5 hPa West 3.6 mph /  5.8 km/h 8.1 mph /  13 km/h 66 % 0.00 in /  0 mm
11:20 40.6 °F /  4.8 °C 30.1 °F /  -1.1 °C 30.14 in /  1020.5 hPa West 2.7 mph /  4.3 km/h 15.0 mph /  24.1 km/h 66 % 0.00 in /  0 mm
11:21 40.6 °F /  4.8 °C 30.1 °F /  -1.1 °C 30.14 in /  1020.5 hPa NW 3.5 mph /  5.6 km/h 15.0 mph /  24.1 km/h 66 % 0.00 in /  0 mm
11:22 40.6 °F /  4.8 °C 30.1 °F /  -1.1 °C 30.13 in /  1020.2 hPa WNW 6.6 mph /  10.6 km/h 6.9 mph /  11.1 km/h 66 % 0.00 in /  0 mm
11:24 40.5 °F /  4.7 °C 29.7 °F /  -1.3 °C 30.13 in /  1020.2 hPa SW 5.5 mph /  8.9 km/h 11.5 mph /  18.5 km/h 65 % 0.00 in /  0 mm
11:25 40.6 °F /  4.8 °C 29.7 °F /  -1.3 °C 29.89 in /  1012.1 hPa WSW 3.7 mph /  6 km/h 9.0 mph /  14.5 km/h 65 % 0.00 in /  0 mm
11:26 40.6 °F /  4.8 °C 29.7 °F /  -1.3 °C 30.13 in /  1020.2 hPa WSW 3.7 mph /  6 km/h 9.0 mph /  14.5 km/h 65 % 0.00 in /  0 mm
11:29 40.5 °F /  4.7 °C 29.7 °F /  -1.3 °C 29.89 in /  1012.1 hPa West 6.2 mph /  10 km/h 12.0 mph /  19.3 km/h 65 % 0.00 in /  0 mm
11:30 40.5 °F /  4.7 °C 29.7 °F /  -1.3 °C 30.14 in /  1020.5 hPa WNW 3.9 mph /  6.3 km/h 11.5 mph /  18.5 km/h 65 % 0.00 in /  0 mm
11:31 40.5 °F /  4.7 °C 29.7 °F /  -1.3 °C 29.89 in /  1012.1 hPa West 5.0 mph /  8 km/h 12.0 mph /  19.3 km/h 65 % 0.00 in /  0 mm
11:32 40.5 °F /  4.7 °C 29.7 °F /  -1.3 °C 30.14 in /  1020.5 hPa West 4.4 mph /  7.1 km/h 8.1 mph /  13 km/h 65 % 0.00 in /  0 mm
11:34 40.5 °F /  4.7 °C 29.7 °F /  -1.3 °C 30.13 in /  1020.2 hPa SW 5.1 mph /  8.2 km/h 10.0 mph /  16.1 km/h 65 % 0.00 in /  0 mm
11:36 40.5 °F /  4.7 °C 29.7 °F /  -1.3 °C 30.14 in /  1020.5 hPa West 5.0 mph /  8 km/h 10.0 mph /  16.1 km/h 65 % 0.00 in /  0 mm
11:38 40.6 °F /  4.8 °C 29.7 °F /  -1.3 °C 30.14 in /  1020.5 hPa WSW 3.4 mph /  5.5 km/h 5.8 mph /  9.3 km/h 65 % 0.00 in /  0 mm
11:39 40.6 °F /  4.8 °C 29.7 °F /  -1.3 °C 30.14 in /  1020.5 hPa WSW 2.6 mph /  4.2 km/h 5.8 mph /  9.3 km/h 65 % 0.00 in /  0 mm
11:40 40.6 °F /  4.8 °C 29.7 °F /  -1.3 °C 30.13 in /  1020.2 hPa SW 4.5 mph /  7.2 km/h 5.0 mph /  8 km/h 65 % 0.00 in /  0 mm
11:42 40.6 °F /  4.8 °C 29.7 °F /  -1.3 °C 30.13 in /  1020.2 hPa WSW 9.4 mph /  15.1 km/h 13.8 mph /  22.2 km/h 65 % 0.00 in /  0 mm
11:43 40.6 °F /  4.8 °C 29.4 °F /  -1.4 °C 30.14 in /  1020.5 hPa West 3.5 mph /  5.6 km/h 12.7 mph /  20.4 km/h 64 % 0.00 in /  0 mm
11:44 40.6 °F /  4.8 °C 29.4 °F /  -1.4 °C 30.14 in /  1020.5 hPa West 3.9 mph /  6.3 km/h 12.7 mph /  20.4 km/h 64 % 0.00 in /  0 mm
11:47 40.6 °F /  4.8 °C 29.4 °F /  -1.4 °C 30.13 in /  1020.2 hPa West 9.8 mph /  15.8 km/h 14.0 mph /  22.5 km/h 64 % 0.00 in /  0 mm
11:48 40.6 °F /  4.8 °C 29.4 °F /  -1.4 °C 30.13 in /  1020.2 hPa WSW 6.1 mph /  9.8 km/h 13.8 mph /  22.2 km/h 64 % 0.00 in /  0 mm
11:50 40.6 °F /  4.8 °C 29.0 °F /  -1.7 °C 30.13 in /  1020.2 hPa WNW 5.8 mph /  9.3 km/h 14.0 mph /  22.5 km/h 63 % 0.00 in /  0 mm
11:51 40.6 °F /  4.8 °C 29.4 °F /  -1.4 °C 30.13 in /  1020.2 hPa West 5.2 mph /  8.4 km/h 13.8 mph /  22.2 km/h 64 % 0.00 in /  0 mm
11:53 40.6 °F /  4.8 °C 29.4 °F /  -1.4 °C 30.13 in /  1020.2 hPa WNW 4.7 mph /  7.6 km/h 8.1 mph /  13 km/h 64 % 0.00 in /  0 mm
11:57 40.7 °F /  4.8 °C 29.1 °F /  -1.6 °C 30.13 in /  1020.2 hPa WNW 5.2 mph /  8.4 km/h 6.9 mph /  11.1 km/h 63 % 0.00 in /  0 mm
11:58 40.7 °F /  4.8 °C 29.1 °F /  -1.6 °C 30.13 in /  1020.2 hPa WSW 6.1 mph /  9.8 km/h 6.9 mph /  11.1 km/h 63 % 0.00 in /  0 mm
12:00 40.7 °F /  4.8 °C 29.1 °F /  -1.6 °C 30.13 in /  1020.2 hPa West 4.6 mph /  7.4 km/h 11.5 mph /  18.5 km/h 63 % 0.00 in /  0 mm
12:02 40.7 °F /  4.8 °C 28.7 °F /  -1.8 °C 30.13 in /  1020.2 hPa West 4.1 mph /  6.6 km/h 10.4 mph /  16.7 km/h 62 % 0.00 in /  0 mm
12:04 40.8 °F /  4.9 °C 28.8 °F /  -1.8 °C 30.13 in /  1020.2 hPa WNW 4.1 mph /  6.6 km/h 9.2 mph /  14.8 km/h 62 % 0.00 in /  0 mm
12:06 40.8 °F /  4.9 °C 28.8 °F /  -1.8 °C 29.89 in /  1012.1 hPa West 5.0 mph /  8 km/h 12.0 mph /  19.3 km/h 62 % 0.00 in /  0 mm
12:08 40.8 °F /  4.9 °C 28.8 °F /  -1.8 °C 30.13 in /  1020.2 hPa WNW 2.0 mph /  3.2 km/h 6.9 mph /  11.1 km/h 62 % 0.00 in /  0 mm
12:09 40.9 °F /  4.9 °C 29.3 °F /  -1.5 °C 30.13 in /  1020.2 hPa West 4.2 mph /  6.8 km/h 8.0 mph /  12.9 km/h 63 % 0.00 in /  0 mm
12:12 41.0 °F /  5 °C 29.0 °F /  -1.7 °C 30.13 in /  1020.2 hPa WNW 5.2 mph /  8.4 km/h 10.4 mph /  16.7 km/h 62 % 0.00 in /  0 mm
12:14 41.1 °F /  5.1 °C 28.7 °F /  -1.8 °C 30.13 in /  1020.2 hPa West 2.9 mph /  4.7 km/h 8.1 mph /  13 km/h 61 % 0.00 in /  0 mm
12:15 41.2 °F /  5.1 °C 28.8 °F /  -1.8 °C 30.13 in /  1020.2 hPa WSW 3.5 mph /  5.6 km/h 5.0 mph /  8 km/h 61 % 0.00 in /  0 mm
12:16 41.2 °F /  5.1 °C 28.8 °F /  -1.8 °C 30.13 in /  1020.2 hPa WSW 5.3 mph /  8.5 km/h 9.2 mph /  14.8 km/h 61 % 0.00 in /  0 mm
12:17 41.3 °F /  5.2 °C 28.9 °F /  -1.7 °C 30.13 in /  1020.2 hPa WSW 3.6 mph /  5.8 km/h 9.2 mph /  14.8 km/h 61 % 0.00 in /  0 mm
12:19 41.4 °F /  5.2 °C 28.9 °F /  -1.7 °C 30.13 in /  1020.2 hPa WSW 5.5 mph /  8.9 km/h 9.2 mph /  14.8 km/h 61 % 0.00 in /  0 mm
12:20 41.5 °F /  5.3 °C 28.6 °F /  -1.9 °C 29.89 in /  1012.1 hPa West 5.5 mph /  8.9 km/h 10.4 mph /  16.7 km/h 60 % 0.00 in /  0 mm
12:22 41.6 °F /  5.3 °C 28.7 °F /  -1.8 °C 30.13 in /  1020.2 hPa WSW 5.3 mph /  8.5 km/h 9.0 mph /  14.5 km/h 60 % 0.00 in /  0 mm
12:23 41.7 °F /  5.4 °C 28.8 °F /  -1.8 °C 30.13 in /  1020.2 hPa West 1.7 mph /  2.7 km/h 9.2 mph /  14.8 km/h 60 % 0.00 in /  0 mm
12:25 41.9 °F /  5.5 °C 29.0 °F /  -1.7 °C 30.13 in /  1020.2 hPa West 4.8 mph /  7.7 km/h 9.0 mph /  14.5 km/h 60 % 0.00 in /  0 mm
12:27 42.0 °F /  5.6 °C 29.1 °F /  -1.6 °C 30.13 in /  1020.2 hPa West 5.1 mph /  8.2 km/h 11.5 mph /  18.5 km/h 60 % 0.00 in /  0 mm
12:29 42.1 °F /  5.6 °C 28.8 °F /  -1.8 °C 30.13 in /  1020.2 hPa West 7.9 mph /  12.7 km/h 11.5 mph /  18.5 km/h 59 % 0.00 in /  0 mm
12:53 42.5 °F /  5.8 °C 27.5 °F /  -2.5 °C 30.13 in /  1020.2 hPa NW 5.0 mph /  8 km/h 14.0 mph /  22.5 km/h 55 % 0.00 in /  0 mm
13:00 42.5 °F /  5.8 °C 27.9 °F /  -2.3 °C 30.13 in /  1020.2 hPa WNW 4.9 mph /  7.9 km/h 11.5 mph /  18.5 km/h 56 % 0.00 in /  0 mm
13:01 42.6 °F /  5.9 °C 28.4 °F /  -2 °C 30.13 in /  1020.2 hPa NW 5.0 mph /  8 km/h 13.0 mph /  20.9 km/h 57 % 0.00 in /  0 mm
13:04 42.6 °F /  5.9 °C 28.8 °F /  -1.8 °C 29.89 in /  1012.1 hPa NNW 4.0 mph /  6.4 km/h 11.5 mph /  18.5 km/h 58 % 0.00 in /  0 mm
13:10 42.5 °F /  5.8 °C 27.9 °F /  -2.3 °C 30.14 in /  1020.5 hPa WNW 2.3 mph /  3.7 km/h 13.0 mph /  20.9 km/h 56 % 0.00 in /  0 mm
13:18 42.5 °F /  5.8 °C 28.3 °F /  -2.1 °C 30.14 in /  1020.5 hPa NNW 5.2 mph /  8.4 km/h 12.0 mph /  19.3 km/h 57 % 0.00 in /  0 mm
13:19 42.5 °F /  5.8 °C 28.3 °F /  -2.1 °C 30.14 in /  1020.5 hPa WNW 2.6 mph /  4.2 km/h 9.2 mph /  14.8 km/h 57 % 0.00 in /  0 mm
13:20 42.5 °F /  5.8 °C 28.3 °F /  -2.1 °C 30.14 in /  1020.5 hPa WNW 1.5 mph /  2.4 km/h 9.2 mph /  14.8 km/h 57 % 0.00 in /  0 mm
13:22 42.5 °F /  5.8 °C 28.8 °F /  -1.8 °C 30.14 in /  1020.5 hPa WNW 6.9 mph /  11.1 km/h 11.5 mph /  18.5 km/h 58 % 0.00 in /  0 mm
13:24 42.5 °F /  5.8 °C 28.3 °F /  -2.1 °C 30.14 in /  1020.5 hPa NW 3.4 mph /  5.5 km/h 11.5 mph /  18.5 km/h 57 % 0.00 in /  0 mm
13:26 42.5 °F /  5.8 °C 28.8 °F /  -1.8 °C 30.14 in /  1020.5 hPa NW 8.1 mph /  13 km/h 12.0 mph /  19.3 km/h 58 % 0.00 in /  0 mm
13:31 42.6 °F /  5.9 °C 28.8 °F /  -1.8 °C 30.13 in /  1020.2 hPa WNW 1.4 mph /  2.3 km/h 9.2 mph /  14.8 km/h 58 % 0.00 in /  0 mm
13:33 42.7 °F /  5.9 °C 28.9 °F /  -1.7 °C 30.13 in /  1020.2 hPa NW 4.0 mph /  6.4 km/h 9.0 mph /  14.5 km/h 58 % 0.00 in /  0 mm
13:36 42.7 °F /  5.9 °C 28.5 °F /  -1.9 °C 30.13 in /  1020.2 hPa WNW 7.0 mph /  11.3 km/h 12.0 mph /  19.3 km/h 57 % 0.00 in /  0 mm
13:39 42.9 °F /  6.1 °C 28.7 °F /  -1.8 °C 30.14 in /  1020.5 hPa WNW 5.3 mph /  8.5 km/h 13.0 mph /  20.9 km/h 57 % 0.00 in /  0 mm
13:40 42.9 °F /  6.1 °C 28.7 °F /  -1.8 °C 29.89 in /  1012.1 hPa WNW 7.0 mph /  11.3 km/h 7.0 mph /  11.3 km/h 57 % 0.00 in /  0 mm
13:41 43.0 °F /  6.1 °C 28.8 °F /  -1.8 °C 30.14 in /  1020.5 hPa NW 5.7 mph /  9.2 km/h 12.7 mph /  20.4 km/h 57 % 0.00 in /  0 mm
13:47 43.1 °F /  6.2 °C 28.9 °F /  -1.7 °C 30.14 in /  1020.5 hPa West 5.4 mph /  8.7 km/h 10.0 mph /  16.1 km/h 57 % 0.00 in /  0 mm
13:50 43.1 °F /  6.2 °C 28.5 °F /  -1.9 °C 30.14 in /  1020.5 hPa WNW 8.0 mph /  12.9 km/h 13.8 mph /  22.2 km/h 56 % 0.00 in /  0 mm
13:51 43.1 °F /  6.2 °C 28.5 °F /  -1.9 °C 30.14 in /  1020.5 hPa WNW 8.5 mph /  13.7 km/h 12.7 mph /  20.4 km/h 56 % 0.00 in /  0 mm
13:55 43.1 °F /  6.2 °C 28.5 °F /  -1.9 °C 30.14 in /  1020.5 hPa West 6.7 mph /  10.8 km/h 11.5 mph /  18.5 km/h 56 % 0.00 in /  0 mm
13:58 43.1 °F /  6.2 °C 28.0 °F /  -2.2 °C 30.14 in /  1020.5 hPa NE 3.7 mph /  6 km/h 12.7 mph /  20.4 km/h 55 % 0.00 in /  0 mm
14:03 43.1 °F /  6.2 °C 28.0 °F /  -2.2 °C 30.15 in /  1020.9 hPa WNW 5.4 mph /  8.7 km/h 10.4 mph /  16.7 km/h 55 % 0.00 in /  0 mm
14:04 43.1 °F /  6.2 °C 28.0 °F /  -2.2 °C 30.15 in /  1020.9 hPa WNW 5.5 mph /  8.9 km/h 11.5 mph /  18.5 km/h 55 % 0.00 in /  0 mm
14:09 43.1 °F /  6.2 °C 28.9 °F /  -1.7 °C 30.15 in /  1020.9 hPa NNW 5.1 mph /  8.2 km/h 6.9 mph /  11.1 km/h 57 % 0.00 in /  0 mm
14:11 43.0 °F /  6.1 °C 28.8 °F /  -1.8 °C 30.15 in /  1020.9 hPa North 5.8 mph /  9.3 km/h 10.4 mph /  16.7 km/h 57 % 0.00 in /  0 mm
14:16 42.8 °F /  6 °C 27.7 °F /  -2.4 °C 30.15 in /  1020.9 hPa NNW 2.7 mph /  4.3 km/h 10.4 mph /  16.7 km/h 55 % 0.00 in /  0 mm
14:21 42.6 °F /  5.9 °C 28.0 °F /  -2.2 °C 30.15 in /  1020.9 hPa NW 6.3 mph /  10.1 km/h 12.7 mph /  20.4 km/h 56 % 0.00 in /  0 mm
14:26 42.4 °F /  5.8 °C 27.8 °F /  -2.3 °C 30.15 in /  1020.9 hPa WNW 4.6 mph /  7.4 km/h 9.2 mph /  14.8 km/h 56 % 0.00 in /  0 mm
14:27 42.3 °F /  5.7 °C 27.7 °F /  -2.4 °C 30.15 in /  1020.9 hPa West 3.7 mph /  6 km/h 11.0 mph /  17.7 km/h 56 % 0.00 in /  0 mm
14:28 42.3 °F /  5.7 °C 27.7 °F /  -2.4 °C 30.15 in /  1020.9 hPa WNW 5.1 mph /  8.2 km/h 11.5 mph /  18.5 km/h 56 % 0.00 in /  0 mm
14:33 42.0 °F /  5.6 °C 27.9 °F /  -2.3 °C 30.15 in /  1020.9 hPa NW 4.9 mph /  7.9 km/h 6.9 mph /  11.1 km/h 57 % 0.00 in /  0 mm
14:38 41.8 °F /  5.4 °C 28.1 °F /  -2.2 °C 30.15 in /  1020.9 hPa NW 3.1 mph /  5 km/h 9.2 mph /  14.8 km/h 58 % 0.00 in /  0 mm
14:43 41.5 °F /  5.3 °C 27.8 °F /  -2.3 °C 30.15 in /  1020.9 hPa NNW 6.5 mph /  10.5 km/h 11.5 mph /  18.5 km/h 58 % 0.00 in /  0 mm
14:48 41.3 °F /  5.2 °C 27.6 °F /  -2.4 °C 30.16 in /  1021.2 hPa NNW 4.9 mph /  7.9 km/h 8.1 mph /  13 km/h 58 % 0.00 in /  0 mm
14:54 41.1 °F /  5.1 °C 27.9 °F /  -2.3 °C 30.16 in /  1021.2 hPa WNW 5.8 mph /  9.3 km/h 11.5 mph /  18.5 km/h 59 % 0.00 in /  0 mm
14:59 41.0 °F /  5 °C 27.8 °F /  -2.3 °C 30.16 in /  1021.2 hPa WNW 5.9 mph /  9.5 km/h 9.2 mph /  14.8 km/h 59 % 0.00 in /  0 mm
15:04 40.8 °F /  4.9 °C 27.6 °F /  -2.4 °C 30.17 in /  1021.6 hPa NW 3.0 mph /  4.8 km/h 8.1 mph /  13 km/h 59 % 0.00 in /  0 mm
15:11 40.6 °F /  4.8 °C 27.8 °F /  -2.3 °C 30.17 in /  1021.6 hPa WNW 3.3 mph /  5.3 km/h 9.2 mph /  14.8 km/h 60 % 0.00 in /  0 mm
15:17 40.5 °F /  4.7 °C 27.7 °F /  -2.4 °C 30.17 in /  1021.6 hPa West 5.0 mph /  8 km/h 10.4 mph /  16.7 km/h 60 % 0.00 in /  0 mm
15:28 40.3 °F /  4.6 °C 27.1 °F /  -2.7 °C 30.17 in /  1021.6 hPa WNW 2.7 mph /  4.3 km/h 9.2 mph /  14.8 km/h 59 % 0.00 in /  0 mm
15:36 40.3 °F /  4.6 °C 26.7 °F /  -2.9 °C 30.18 in /  1021.9 hPa NW 3.6 mph /  5.8 km/h 10.4 mph /  16.7 km/h 58 % 0.00 in /  0 mm
15:37 40.3 °F /  4.6 °C 26.7 °F /  -2.9 °C 29.94 in /  1013.8 hPa WNW 3.1 mph /  5 km/h 6.0 mph /  9.7 km/h 58 % 0.00 in /  0 mm
15:44 40.3 °F /  4.6 °C 26.7 °F /  -2.9 °C 29.95 in /  1014.1 hPa West 4.2 mph /  6.8 km/h 11.5 mph /  18.5 km/h 58 % 0.00 in /  0 mm
15:46 40.3 °F /  4.6 °C 26.7 °F /  -2.9 °C 30.19 in /  1022.2 hPa WNW 3.7 mph /  6 km/h 9.2 mph /  14.8 km/h 58 % 0.00 in /  0 mm
15:49 40.3 °F /  4.6 °C 26.7 °F /  -2.9 °C 29.95 in /  1014.1 hPa West 4.4 mph /  7.1 km/h 10.0 mph /  16.1 km/h 58 % 0.00 in /  0 mm
15:51 40.3 °F /  4.6 °C 26.7 °F /  -2.9 °C 30.19 in /  1022.2 hPa NW 4.5 mph /  7.2 km/h 10.4 mph /  16.7 km/h 58 % 0.00 in /  0 mm
15:57 40.2 °F /  4.6 °C 26.6 °F /  -3 °C 30.20 in /  1022.6 hPa West 4.8 mph /  7.7 km/h 9.2 mph /  14.8 km/h 58 % 0.00 in /  0 mm
16:01 40.2 °F /  4.6 °C 26.6 °F /  -3 °C 30.20 in /  1022.6 hPa NW 6.4 mph /  10.3 km/h 10.4 mph /  16.7 km/h 58 % 0.00 in /  0 mm
16:07 40.0 °F /  4.4 °C 26.8 °F /  -2.9 °C 30.20 in /  1022.6 hPa WNW 4.2 mph /  6.8 km/h 10.4 mph /  16.7 km/h 59 % 0.00 in /  0 mm
16:15 39.9 °F /  4.4 °C 26.3 °F /  -3.2 °C 30.21 in /  1022.9 hPa NW 6.2 mph /  10 km/h 10.4 mph /  16.7 km/h 58 % 0.00 in /  0 mm
16:17 39.8 °F /  4.3 °C 26.2 °F /  -3.2 °C 30.21 in /  1022.9 hPa West 4.8 mph /  7.7 km/h 8.1 mph /  13 km/h 58 % 0.00 in /  0 mm
16:23 39.7 °F /  4.3 °C 26.5 °F /  -3.1 °C 30.21 in /  1022.9 hPa WNW 7.8 mph /  12.6 km/h 13.0 mph /  20.9 km/h 59 % 0.00 in /  0 mm
16:28 39.6 °F /  4.2 °C 26.4 °F /  -3.1 °C 30.21 in /  1022.9 hPa NNW 5.7 mph /  9.2 km/h 9.2 mph /  14.8 km/h 59 % 0.00 in /  0 mm
16:34 39.6 °F /  4.2 °C 26.4 °F /  -3.1 °C 29.97 in /  1014.8 hPa WNW 5.6 mph /  9 km/h 12.0 mph /  19.3 km/h 59 % 0.00 in /  0 mm
16:41 39.5 °F /  4.2 °C 26.3 °F /  -3.2 °C 30.22 in /  1023.2 hPa WNW 3.1 mph /  5 km/h 10.4 mph /  16.7 km/h 59 % 0.00 in /  0 mm
16:46 39.4 °F /  4.1 °C 26.2 °F /  -3.2 °C 30.22 in /  1023.2 hPa WNW 4.0 mph /  6.4 km/h 10.0 mph /  16.1 km/h 59 % 0.00 in /  0 mm
16:53 39.3 °F /  4.1 °C 26.2 °F /  -3.2 °C 30.23 in /  1023.6 hPa West 1.0 mph /  1.6 km/h 6.9 mph /  11.1 km/h 59 % 0.00 in /  0 mm
16:58 39.2 °F /  4 °C 26.5 °F /  -3.1 °C 30.23 in /  1023.6 hPa WNW 1.8 mph /  2.9 km/h 5.0 mph /  8 km/h 60 % 0.00 in /  0 mm
17:04 39.1 °F /  3.9 °C 26.8 °F /  -2.9 °C 30.23 in /  1023.6 hPa WSW 1.1 mph /  1.8 km/h 4.0 mph /  6.4 km/h 61 % 0.00 in /  0 mm
17:09 39.0 °F /  3.9 °C 26.7 °F /  -2.9 °C 30.23 in /  1023.6 hPa WSW 2.3 mph /  3.7 km/h 8.1 mph /  13 km/h 61 % 0.00 in /  0 mm
17:10 38.9 °F /  3.8 °C 26.6 °F /  -3 °C 30.23 in /  1023.6 hPa WSW 2.9 mph /  4.7 km/h 5.8 mph /  9.3 km/h 61 % 0.00 in /  0 mm
17:16 38.8 °F /  3.8 °C 26.9 °F /  -2.8 °C 30.23 in /  1023.6 hPa West 3.0 mph /  4.8 km/h 7.0 mph /  11.3 km/h 62 % 0.00 in /  0 mm
17:21 38.6 °F /  3.7 °C 26.7 °F /  -2.9 °C 30.24 in /  1023.9 hPa West 5.0 mph /  8 km/h 10.0 mph /  16.1 km/h 62 % 0.00 in /  0 mm
17:23 38.6 °F /  3.7 °C 26.7 °F /  -2.9 °C 30.23 in /  1023.6 hPa WNW 4.5 mph /  7.2 km/h 10.4 mph /  16.7 km/h 62 % 0.00 in /  0 mm
17:28 38.6 °F /  3.7 °C 26.3 °F /  -3.2 °C 30.24 in /  1023.9 hPa NW 5.1 mph /  8.2 km/h 11.5 mph /  18.5 km/h 61 % 0.00 in /  0 mm
17:31 38.6 °F /  3.7 °C 26.3 °F /  -3.2 °C 30.00 in /  1015.8 hPa WNW 5.0 mph /  8 km/h 12.0 mph /  19.3 km/h 61 % 0.00 in /  0 mm
17:33 38.6 °F /  3.7 °C 26.3 °F /  -3.2 °C 30.00 in /  1015.8 hPa WNW 5.3 mph /  8.5 km/h 12.7 mph /  20.4 km/h 61 % 0.00 in /  0 mm
17:41 38.6 °F /  3.7 °C 26.7 °F /  -2.9 °C 30.25 in /  1024.3 hPa NW 9.0 mph /  14.5 km/h 12.0 mph /  19.3 km/h 62 % 0.00 in /  0 mm
17:43 38.6 °F /  3.7 °C 26.7 °F /  -2.9 °C 30.00 in /  1015.8 hPa NNW 7.4 mph /  11.9 km/h 11.5 mph /  18.5 km/h 62 % 0.00 in /  0 mm
17:48 38.6 °F /  3.7 °C 26.7 °F /  -2.9 °C 30.25 in /  1024.3 hPa NW 3.5 mph /  5.6 km/h 11.5 mph /  18.5 km/h 62 % 0.00 in /  0 mm
17:53 38.6 °F /  3.7 °C 27.1 °F /  -2.7 °C 30.01 in /  1016.1 hPa WNW 5.9 mph /  9.5 km/h 12.0 mph /  19.3 km/h 63 % 0.00 in /  0 mm
18:07 38.5 °F /  3.6 °C 28.1 °F /  -2.2 °C 30.27 in /  1024.9 hPa NW 3.9 mph /  6.3 km/h 13.0 mph /  20.9 km/h 66 % 0.00 in /  0 mm
18:21 37.9 °F /  3.3 °C 29.0 °F /  -1.7 °C 30.27 in /  1024.9 hPa WNW 1.3 mph /  2.1 km/h 10.4 mph /  16.7 km/h 70 % 0.00 in /  0 mm
18:28 37.6 °F /  3.1 °C 29.0 °F /  -1.7 °C 30.03 in /  1016.8 hPa North 0.9 mph /  1.4 km/h 5.0 mph /  8 km/h 71 % 0.00 in /  0 mm
18:34 37.3 °F /  2.9 °C 28.4 °F /  -2 °C 30.28 in /  1025.3 hPa NNW 3.9 mph /  6.3 km/h 8.0 mph /  12.9 km/h 70 % 0.00 in /  0 mm
18:40 37.2 °F /  2.9 °C 27.6 °F /  -2.4 °C 30.28 in /  1025.3 hPa NW 4.1 mph /  6.6 km/h 11.5 mph /  18.5 km/h 68 % 0.00 in /  0 mm
18:46 37.3 °F /  2.9 °C 27.3 °F /  -2.6 °C 30.28 in /  1025.3 hPa NW 5.4 mph /  8.7 km/h 11.5 mph /  18.5 km/h 67 % 0.00 in /  0 mm
18:50 37.3 °F /  2.9 °C 27.7 °F /  -2.4 °C 30.29 in /  1025.6 hPa NNW 5.9 mph /  9.5 km/h 11.5 mph /  18.5 km/h 68 % 0.00 in /  0 mm
Crab Meadow Weather
Compliments of Weather Underground - 4.75 mb

Script developed by  Jim McMurry - jmcmurry@mwt.net Adapted for the template by  Wim van der Kuil - Leuven-Template.eu

Weather Terms: Heavy Sleet Warning - Accumulations of 1/2 inch or more of sleet.